Time,TemperatureF,DewpointF,PressureIn,WindDirection,WindDirectionDegrees,WindSpeedMPH,WindSpeedGustMPH,Humidity,HourlyPrecipIn,Conditions,Clouds,dailyrainin,SoftwareType,DateUTC
2013-01-14 00:00:00,45.2,44.9,29.92,WNW,298,0.0,1.0,99,0.00,,,0.00,Wunderground v.1.15,2013-01-14 05:00:00,
2013-01-14 00:01:00,45.2,44.9,29.92,WNW,298,0.0,0.0,99,0.00,,,0.00,Wunderground v.1.15,2013-01-14 05:01:00,
2013-01-14 00:02:00,45.3,45.0,29.92,WNW,298,0.0,0.0,99,0.00,,,0.00,Wunderground v.1.15,2013-01-14 05:02:00,
2013-01-14 00:06:00,45.4,45.1,29.92,WNW,298,0.0,1.0,99,0.00,,,0.00,Wunderground v.1.15,2013-01-14 05:06:00,
2013-01-14 00:08:00,45.4,45.1,29.92,WNW,298,0.0,1.0,99,0.00,,,0.00,Wunderground v.1.15,2013-01-14 05:08:00,
2013-01-14 00:09:00,45.4,45.1,29.92,WNW,298,0.0,1.0,99,0.00,,,0.00,Wunderground v.1.15,2013-01-14 05:09:00,
2013-01-14 00:11:00,45.3,45.0,29.91,WNW,298,0.0,0.0,99,0.00,,,0.00,Wunderground v.1.15,2013-01-14 05:11:00,
2013-01-14 00:14:00,45.4,45.1,29.91,WNW,298,0.0,0.0,99,0.00,,,0.00,Wunderground v.1.15,2013-01-14 05:14:00,
2013-01-14 00:18:00,45.5,45.2,29.91,WNW,298,0.0,0.0,99,0.00,,,0.00,Wunderground v.1.15,2013-01-14 05:18:00,
2013-01-14 00:19:00,45.6,45.3,29.91,WNW,298,0.0,0.0,99,0.00,,,0.00,Wunderground v.1.15,2013-01-14 05:19:00,
2013-01-14 00:22:00,45.8,45.5,29.92,WNW,298,0.0,0.0,99,0.00,,,0.00,Wunderground v.1.15,2013-01-14 05:22:00,
2013-01-14 00:26:00,45.8,45.5,29.92,WNW,298,0.0,0.0,99,0.00,,,0.00,Wunderground v.1.15,2013-01-14 05:26:00,
2013-01-14 00:27:00,45.8,45.5,29.92,WNW,298,0.0,0.0,99,0.00,,,0.00,Wunderground v.1.15,2013-01-14 05:27:00,
2013-01-14 00:30:00,45.8,45.5,29.92,WNW,298,0.0,0.0,99,0.00,,,0.00,Wunderground v.1.15,2013-01-14 05:30:00,
2013-01-14 00:32:00,45.8,45.5,29.92,WNW,298,0.0,0.0,99,0.00,,,0.00,Wunderground v.1.15,2013-01-14 05:32:00,
2013-01-14 00:33:00,45.8,45.5,29.92,WNW,298,0.0,0.0,99,0.00,,,0.00,Wunderground v.1.15,2013-01-14 05:33:00,
2013-01-14 00:36:00,45.8,45.5,29.91,WNW,298,0.0,0.0,99,0.00,,,0.00,Wunderground v.1.15,2013-01-14 05:36:00,
2013-01-14 00:37:00,45.7,45.4,29.91,WNW,298,0.0,0.0,99,0.00,,,0.00,Wunderground v.1.15,2013-01-14 05:37:00,
2013-01-14 00:38:00,45.7,45.4,29.91,WNW,298,0.0,0.0,99,0.00,,,0.00,Wunderground v.1.15,2013-01-14 05:38:00,
2013-01-14 00:40:00,45.8,45.5,29.91,WNW,298,0.0,0.0,99,0.00,,,0.00,Wunderground v.1.15,2013-01-14 05:40:00,
2013-01-14 00:44:00,45.8,45.5,29.92,WNW,298,0.0,0.0,99,0.00,,,0.00,Wunderground v.1.15,2013-01-14 05:44:00,
2013-01-14 00:46:00,45.8,45.5,29.91,WNW,298,1.0,1.0,99,0.00,,,0.01,Wunderground v.1.15,2013-01-14 05:46:00,
2013-01-14 00:49:00,45.8,45.5,29.91,WNW,298,0.0,1.0,99,0.00,,,0.01,Wunderground v.1.15,2013-01-14 05:49:00,
2013-01-14 00:51:00,45.8,45.5,29.91,WNW,298,0.0,0.0,99,0.00,,,0.01,Wunderground v.1.15,2013-01-14 05:51:00,
2013-01-14 00:54:00,45.6,45.3,29.91,WNW,298,0.0,0.0,99,0.00,,,0.01,Wunderground v.1.15,2013-01-14 05:54:00,
2013-01-14 00:56:00,45.4,45.1,29.91,WNW,298,0.0,0.0,99,0.00,,,0.01,Wunderground v.1.15,2013-01-14 05:56:00,
2013-01-14 00:59:00,45.3,45.0,29.91,WNW,298,1.0,1.0,99,0.00,,,0.01,Wunderground v.1.15,2013-01-14 05:59:00,
2013-01-14 01:00:00,45.3,45.0,29.91,WNW,298,0.0,0.0,99,0.00,,,0.01,Wunderground v.1.15,2013-01-14 06:00:00,
2013-01-14 01:03:00,45.2,44.9,29.91,North,360,0.0,0.0,99,0.00,,,0.01,Wunderground v.1.15,2013-01-14 06:03:00,
2013-01-14 01:05:00,45.2,44.9,29.91,North,360,0.0,1.0,99,0.00,,,0.01,Wunderground v.1.15,2013-01-14 06:05:00,
2013-01-14 01:06:00,45.3,45.0,29.91,North,360,0.0,1.0,99,0.00,,,0.01,Wunderground v.1.15,2013-01-14 06:06:00,
2013-01-14 01:07:00,45.4,45.1,29.91,North,360,0.0,1.0,99,0.00,,,0.01,Wunderground v.1.15,2013-01-14 06:07:00,
2013-01-14 01:08:00,45.4,45.1,29.90,North,360,0.0,1.0,99,0.00,,,0.01,Wunderground v.1.15,2013-01-14 06:08:00,
2013-01-14 01:12:00,45.8,45.5,29.90,North,360,0.0,0.0,99,0.00,,,0.01,Wunderground v.1.15,2013-01-14 06:12:00,
2013-01-14 01:13:00,46.0,45.7,29.89,NNE,24,0.0,0.0,99,0.00,,,0.01,Wunderground v.1.15,2013-01-14 06:13:00,
2013-01-14 01:14:00,46.0,45.7,29.89,ENE,63,1.0,1.0,99,0.00,,,0.01,Wunderground v.1.15,2013-01-14 06:14:00,
2013-01-14 01:17:00,45.9,45.6,29.89,East,85,2.0,2.0,99,0.00,,,0.01,Wunderground v.1.15,2013-01-14 06:17:00,
2013-01-14 01:19:00,45.8,45.5,29.89,East,85,0.0,2.0,99,0.00,,,0.01,Wunderground v.1.15,2013-01-14 06:19:00,
2013-01-14 01:20:00,45.8,45.5,29.90,East,85,0.0,1.0,99,0.00,,,0.01,Wunderground v.1.15,2013-01-14 06:20:00,
2013-01-14 01:22:00,45.9,45.6,29.89,East,85,0.0,1.0,99,0.00,,,0.01,Wunderground v.1.15,2013-01-14 06:22:00,
2013-01-14 01:24:00,46.1,45.8,29.89,East,85,0.0,1.0,99,0.00,,,0.01,Wunderground v.1.15,2013-01-14 06:24:00,
2013-01-14 01:26:00,46.3,46.0,29.89,East,85,0.0,1.0,99,0.00,,,0.01,Wunderground v.1.15,2013-01-14 06:26:00,
2013-01-14 01:27:00,46.4,46.1,29.89,East,85,0.0,1.0,99,0.00,,,0.01,Wunderground v.1.15,2013-01-14 06:27:00,
2013-01-14 01:29:00,46.3,46.0,29.90,East,85,0.0,1.0,99,0.00,,,0.01,Wunderground v.1.15,2013-01-14 06:29:00,
2013-01-14 01:30:00,46.3,46.0,29.90,East,85,0.0,0.0,99,0.00,,,0.01,Wunderground v.1.15,2013-01-14 06:30:00,
2013-01-14 01:33:00,46.4,46.1,29.91,East,85,0.0,0.0,99,0.00,,,0.01,Wunderground v.1.15,2013-01-14 06:33:00,
2013-01-14 01:36:00,46.2,45.9,29.91,East,85,0.0,0.0,99,0.00,,,0.01,Wunderground v.1.15,2013-01-14 06:36:00,
2013-01-14 01:37:00,46.2,45.9,29.91,East,85,0.0,0.0,99,0.00,,,0.01,Wunderground v.1.15,2013-01-14 06:37:00,
2013-01-14 01:38:00,46.1,45.8,29.91,East,85,0.0,0.0,99,0.00,,,0.01,Wunderground v.1.15,2013-01-14 06:38:00,
2013-01-14 01:40:00,46.2,45.9,29.91,East,85,0.0,0.0,99,0.00,,,0.01,Wunderground v.1.15,2013-01-14 06:40:00,
2013-01-14 01:45:00,44.4,43.9,29.91,East,85,0.0,2.0,98,0.00,,,0.01,Wunderground v.1.15,2013-01-14 06:45:00,
2013-01-14 01:46:00,44.1,43.6,29.91,East,85,0.0,2.0,98,0.00,,,0.01,Wunderground v.1.15,2013-01-14 06:46:00,
2013-01-14 01:47:00,43.9,43.4,29.91,East,85,0.0,2.0,98,0.00,,,0.01,Wunderground v.1.15,2013-01-14 06:47:00,
2013-01-14 01:48:00,43.7,42.9,29.91,East,85,0.0,2.0,97,0.00,,,0.01,Wunderground v.1.15,2013-01-14 06:48:00,
2013-01-14 01:51:00,43.0,42.2,29.91,East,85,0.0,0.0,97,0.00,,,0.01,Wunderground v.1.15,2013-01-14 06:51:00,
2013-01-14 01:54:00,42.5,42.0,29.90,East,85,0.0,0.0,98,0.00,,,0.01,Wunderground v.1.15,2013-01-14 06:54:00,
2013-01-14 01:56:00,42.5,42.0,29.91,East,85,0.0,0.0,98,0.00,,,0.01,Wunderground v.1.15,2013-01-14 06:56:00,
2013-01-14 01:57:00,42.6,42.1,29.90,East,85,0.0,0.0,98,0.00,,,0.01,Wunderground v.1.15,2013-01-14 06:57:00,
2013-01-14 01:58:00,42.6,42.1,29.90,East,85,0.0,0.0,98,0.00,,,0.01,Wunderground v.1.15,2013-01-14 06:58:00,
2013-01-14 02:01:00,42.8,42.5,29.90,East,85,0.0,0.0,99,0.00,,,0.01,Wunderground v.1.15,2013-01-14 07:01:00,
2013-01-14 02:02:00,42.8,42.5,29.90,East,85,0.0,0.0,99,0.00,,,0.01,Wunderground v.1.15,2013-01-14 07:02:00,
2013-01-14 02:03:00,42.8,42.5,29.90,East,85,0.0,0.0,99,0.00,,,0.01,Wunderground v.1.15,2013-01-14 07:03:00,
2013-01-14 02:06:00,42.7,42.4,29.90,East,85,0.0,0.0,99,0.00,,,0.01,Wunderground v.1.15,2013-01-14 07:06:00,
2013-01-14 02:07:00,42.6,42.3,29.90,East,85,0.0,0.0,99,0.00,,,0.01,Wunderground v.1.15,2013-01-14 07:07:00,
2013-01-14 02:08:00,42.5,42.2,29.90,East,85,0.0,0.0,99,0.00,,,0.01,Wunderground v.1.15,2013-01-14 07:08:00,
2013-01-14 02:11:00,42.5,42.0,29.90,East,85,0.0,0.0,98,0.00,,,0.01,Wunderground v.1.15,2013-01-14 07:11:00,
2013-01-14 02:12:00,42.4,41.9,29.90,East,85,0.0,0.0,98,0.00,,,0.01,Wunderground v.1.15,2013-01-14 07:12:00,
2013-01-14 02:13:00,42.4,41.9,29.90,East,85,0.0,0.0,98,0.00,,,0.01,Wunderground v.1.15,2013-01-14 07:13:00,
2013-01-14 02:16:00,42.0,41.5,29.90,East,85,0.0,0.0,98,0.00,,,0.01,Wunderground v.1.15,2013-01-14 07:16:00,
2013-01-14 02:17:00,41.9,41.4,29.90,East,85,0.0,0.0,98,0.00,,,0.01,Wunderground v.1.15,2013-01-14 07:17:00,
2013-01-14 02:18:00,41.7,41.2,29.90,East,85,0.0,0.0,98,0.00,,,0.01,Wunderground v.1.15,2013-01-14 07:18:00,
2013-01-14 02:21:00,41.6,41.1,29.90,East,85,0.0,0.0,98,0.00,,,0.01,Wunderground v.1.15,2013-01-14 07:21:00,
2013-01-14 02:22:00,41.5,41.0,29.90,East,85,0.0,0.0,98,0.00,,,0.01,Wunderground v.1.15,2013-01-14 07:22:00,
2013-01-14 02:23:00,41.5,41.0,29.90,East,85,0.0,0.0,98,0.00,,,0.01,Wunderground v.1.15,2013-01-14 07:23:00,
2013-01-14 02:24:00,41.4,40.9,29.90,East,85,0.0,0.0,98,0.00,,,0.01,Wunderground v.1.15,2013-01-14 07:24:00,
2013-01-14 02:26:00,41.3,40.8,29.90,East,85,0.0,1.0,98,0.00,,,0.01,Wunderground v.1.15,2013-01-14 07:26:00,
2013-01-14 02:27:00,41.2,40.7,29.90,East,85,0.0,1.0,98,0.00,,,0.01,Wunderground v.1.15,2013-01-14 07:27:00,
2013-01-14 02:28:00,41.2,40.7,29.90,East,85,0.0,1.0,98,0.00,,,0.01,Wunderground v.1.15,2013-01-14 07:28:00,
2013-01-14 02:29:00,41.1,40.6,29.90,East,85,0.0,2.0,98,0.00,,,0.01,Wunderground v.1.15,2013-01-14 07:29:00,
2013-01-14 02:31:00,41.3,40.8,29.90,East,85,0.0,1.0,98,0.00,,,0.01,Wunderground v.1.15,2013-01-14 07:31:00,
2013-01-14 02:32:00,41.5,41.2,29.90,East,85,0.0,1.0,99,0.00,,,0.01,Wunderground v.1.15,2013-01-14 07:32:00,
2013-01-14 02:33:00,41.6,41.3,29.90,East,85,0.0,1.0,99,0.00,,,0.01,Wunderground v.1.15,2013-01-14 07:33:00,
2013-01-14 02:34:00,41.9,41.6,29.90,East,85,0.0,1.0,99,0.00,,,0.01,Wunderground v.1.15,2013-01-14 07:34:00,
2013-01-14 02:36:00,42.2,41.9,29.90,East,85,0.0,1.0,99,0.00,,,0.01,Wunderground v.1.15,2013-01-14 07:36:00,
2013-01-14 02:37:00,42.2,41.9,29.90,East,85,0.0,1.0,99,0.00,,,0.01,Wunderground v.1.15,2013-01-14 07:37:00,
2013-01-14 02:38:00,42.3,42.0,29.90,East,85,0.0,1.0,99,0.00,,,0.01,Wunderground v.1.15,2013-01-14 07:38:00,
2013-01-14 02:40:00,42.3,42.0,29.90,East,85,0.0,0.0,99,0.00,,,0.01,Wunderground v.1.15,2013-01-14 07:40:00,
2013-01-14 02:42:00,42.3,42.0,29.90,East,85,0.0,0.0,99,0.00,,,0.01,Wunderground v.1.15,2013-01-14 07:42:00,
2013-01-14 02:43:00,42.2,41.9,29.90,East,85,0.0,0.0,99,0.00,,,0.01,Wunderground v.1.15,2013-01-14 07:43:00,
2013-01-14 02:45:00,42.2,41.9,29.90,East,85,0.0,0.0,99,0.00,,,0.01,Wunderground v.1.15,2013-01-14 07:45:00,
2013-01-14 02:47:00,42.2,41.9,29.90,East,85,0.0,0.0,99,0.00,,,0.01,Wunderground v.1.15,2013-01-14 07:47:00,
2013-01-14 02:48:00,42.1,41.8,29.90,East,85,0.0,0.0,99,0.00,,,0.01,Wunderground v.1.15,2013-01-14 07:48:00,
2013-01-14 02:50:00,42.0,41.7,29.90,East,85,0.0,0.0,99,0.00,,,0.01,Wunderground v.1.15,2013-01-14 07:50:00,
2013-01-14 02:52:00,41.8,41.5,29.89,East,85,0.0,0.0,99,0.00,,,0.01,Wunderground v.1.15,2013-01-14 07:52:00,
2013-01-14 02:53:00,41.8,41.5,29.89,East,85,0.0,0.0,99,0.00,,,0.01,Wunderground v.1.15,2013-01-14 07:53:00,
2013-01-14 02:55:00,41.6,41.3,29.90,East,85,0.0,0.0,99,0.00,,,0.01,Wunderground v.1.15,2013-01-14 07:55:00,
2013-01-14 02:58:00,41.6,41.3,29.90,East,85,0.0,0.0,99,0.00,,,0.01,Wunderground v.1.15,2013-01-14 07:58:00,
2013-01-14 03:00:00,41.5,41.2,29.89,East,85,0.0,0.0,99,0.00,,,0.01,Wunderground v.1.15,2013-01-14 08:00:00,
2013-01-14 03:03:00,41.4,41.1,29.89,East,85,1.0,1.0,99,0.00,,,0.01,Wunderground v.1.15,2013-01-14 08:03:00,
2013-01-14 03:05:00,41.3,40.8,29.89,East,85,0.0,2.0,98,0.00,,,0.01,Wunderground v.1.15,2013-01-14 08:05:00,
2013-01-14 03:06:00,41.3,40.8,29.89,East,85,0.0,2.0,98,0.00,,,0.01,Wunderground v.1.15,2013-01-14 08:06:00,
2013-01-14 03:08:00,41.1,40.6,29.89,East,85,0.0,2.0,98,0.00,,,0.01,Wunderground v.1.15,2013-01-14 08:08:00,
2013-01-14 03:11:00,41.1,40.6,29.89,East,85,0.0,0.0,98,0.00,,,0.01,Wunderground v.1.15,2013-01-14 08:11:00,
2013-01-14 03:12:00,41.1,40.8,29.89,East,85,0.0,0.0,99,0.00,,,0.01,Wunderground v.1.15,2013-01-14 08:12:00,
2013-01-14 03:13:00,41.1,40.8,29.89,East,85,0.0,0.0,99,0.00,,,0.01,Wunderground v.1.15,2013-01-14 08:13:00,
2013-01-14 03:14:00,41.1,40.8,29.89,East,85,0.0,0.0,99,0.00,,,0.01,Wunderground v.1.15,2013-01-14 08:14:00,
2013-01-14 03:16:00,41.0,40.7,29.89,East,85,0.0,0.0,99,0.00,,,0.01,Wunderground v.1.15,2013-01-14 08:16:00,
2013-01-14 03:17:00,41.0,40.7,29.89,East,85,0.0,0.0,99,0.00,,,0.01,Wunderground v.1.15,2013-01-14 08:17:00,
2013-01-14 03:19:00,41.0,40.7,29.89,East,85,0.0,0.0,99,0.00,,,0.01,Wunderground v.1.15,2013-01-14 08:19:00,
2013-01-14 03:22:00,40.8,40.3,29.89,East,85,0.0,0.0,98,0.00,,,0.01,Wunderground v.1.15,2013-01-14 08:22:00,
2013-01-14 03:24:00,40.6,40.1,29.89,East,85,0.0,0.0,98,0.00,,,0.01,Wunderground v.1.15,2013-01-14 08:24:00,
2013-01-14 03:27:00,40.5,40.0,29.89,East,85,0.0,0.0,98,0.00,,,0.01,Wunderground v.1.15,2013-01-14 08:27:00,
2013-01-14 03:28:00,40.5,40.0,29.88,East,85,0.0,1.0,98,0.00,,,0.01,Wunderground v.1.15,2013-01-14 08:28:00,
2013-01-14 03:29:00,40.4,39.9,29.88,East,85,0.0,1.0,98,0.00,,,0.01,Wunderground v.1.15,2013-01-14 08:29:00,
2013-01-14 03:33:00,40.7,40.4,29.87,East,79,2.0,5.0,99,0.00,,,0.01,Wunderground v.1.15,2013-01-14 08:33:00,
2013-01-14 03:34:00,41.0,40.7,29.87,East,80,1.0,5.0,99,0.00,,,0.01,Wunderground v.1.15,2013-01-14 08:34:00,
2013-01-14 03:35:00,41.3,41.0,29.87,East,79,0.0,5.0,99,0.00,,,0.01,Wunderground v.1.15,2013-01-14 08:35:00,
2013-01-14 03:39:00,44.0,43.7,29.86,SW,228,0.0,5.0,99,0.00,,,0.01,Wunderground v.1.15,2013-01-14 08:39:00,
2013-01-14 03:40:00,44.4,44.1,29.86,SW,228,0.0,5.0,99,0.00,,,0.01,Wunderground v.1.15,2013-01-14 08:40:00,
2013-01-14 03:44:00,43.3,43.0,29.86,SW,229,2.0,3.0,99,0.00,,,0.01,Wunderground v.1.15,2013-01-14 08:44:00,
2013-01-14 03:45:00,43.0,42.7,29.86,SSW,200,0.0,3.0,99,0.00,,,0.01,Wunderground v.1.15,2013-01-14 08:45:00,
2013-01-14 03:46:00,43.0,42.7,29.86,SE,146,2.0,4.0,99,0.00,,,0.01,Wunderground v.1.15,2013-01-14 08:46:00,
2013-01-14 03:49:00,43.8,43.5,29.85,SSW,195,0.0,6.0,99,0.00,,,0.01,Wunderground v.1.15,2013-01-14 08:49:00,
2013-01-14 03:50:00,43.9,43.6,29.85,ESE,109,2.0,6.0,99,0.00,,,0.01,Wunderground v.1.15,2013-01-14 08:50:00,
2013-01-14 03:52:00,44.6,44.3,29.85,South,169,2.0,6.0,99,0.00,,,0.01,Wunderground v.1.15,2013-01-14 08:52:00,
2013-01-14 03:54:00,45.4,45.1,29.85,SSE,155,2.0,6.0,99,0.00,,,0.01,Wunderground v.1.15,2013-01-14 08:54:00,
2013-01-14 03:55:00,45.4,45.1,29.85,SSE,158,1.0,6.0,99,0.00,,,0.01,Wunderground v.1.15,2013-01-14 08:55:00,
2013-01-14 03:56:00,45.2,44.9,29.85,ESE,117,0.0,6.0,99,0.00,,,0.01,Wunderground v.1.15,2013-01-14 08:56:00,
2013-01-14 03:57:00,45.0,44.7,29.84,West,264,6.0,6.0,99,0.00,,,0.01,Wunderground v.1.15,2013-01-14 08:57:00,
2013-01-14 03:59:00,43.2,42.9,29.85,West,278,0.0,6.0,99,0.00,,,0.01,Wunderground v.1.15,2013-01-14 08:59:00,
2013-01-14 04:00:00,43.1,42.8,29.85,West,278,1.0,2.0,99,0.00,,,0.01,Wunderground v.1.15,2013-01-14 09:00:00,
2013-01-14 04:01:00,42.4,42.1,29.85,West,278,0.0,2.0,99,0.00,,,0.01,Wunderground v.1.15,2013-01-14 09:01:00,
2013-01-14 04:03:00,41.5,41.2,29.84,SE,138,0.0,5.0,99,0.00,,,0.01,Wunderground v.1.15,2013-01-14 09:03:00,
2013-01-14 04:04:00,41.0,40.5,29.84,WSW,252,6.0,6.0,98,0.00,,,0.01,Wunderground v.1.15,2013-01-14 09:04:00,
2013-01-14 04:06:00,40.7,40.2,29.84,WSW,252,0.0,6.0,98,0.00,,,0.01,Wunderground v.1.15,2013-01-14 09:06:00,
2013-01-14 04:09:00,40.1,39.6,29.84,NNE,14,2.0,6.0,98,0.00,,,0.01,Wunderground v.1.15,2013-01-14 09:09:00,
2013-01-14 04:10:00,39.9,39.4,29.84,ENE,78,2.0,2.0,98,0.00,,,0.01,Wunderground v.1.15,2013-01-14 09:10:00,
2013-01-14 04:11:00,40.0,39.5,29.84,NE,54,0.0,3.0,98,0.00,,,0.01,Wunderground v.1.15,2013-01-14 09:11:00,
2013-01-14 04:12:00,40.4,39.9,29.84,ENE,58,0.0,3.0,98,0.00,,,0.01,Wunderground v.1.15,2013-01-14 09:12:00,
2013-01-14 04:14:00,41.1,40.8,29.83,West,265,3.0,4.0,99,0.00,,,0.01,Wunderground v.1.15,2013-01-14 09:14:00,
2013-01-14 04:15:00,41.6,41.3,29.83,NW,323,1.0,4.0,99,0.00,,,0.01,Wunderground v.1.15,2013-01-14 09:15:00,
2013-01-14 04:16:00,42.1,41.8,29.83,WNW,296,0.0,4.0,99,0.00,,,0.01,Wunderground v.1.15,2013-01-14 09:16:00,
2013-01-14 04:17:00,42.2,41.9,29.83,WSW,244,1.0,4.0,99,0.00,,,0.01,Wunderground v.1.15,2013-01-14 09:17:00,
2013-01-14 04:19:00,42.4,42.1,29.83,West,265,2.0,4.0,99,0.00,,,0.01,Wunderground v.1.15,2013-01-14 09:19:00,
2013-01-14 04:21:00,42.9,42.6,29.82,SE,141,0.0,6.0,99,0.00,,,0.01,Wunderground v.1.15,2013-01-14 09:21:00,
2013-01-14 04:22:00,43.6,43.3,29.83,South,180,11.0,11.0,99,0.00,,,0.01,Wunderground v.1.15,2013-01-14 09:22:00,
2013-01-14 04:24:00,44.8,44.5,29.83,West,265,4.0,11.0,99,0.00,,,0.01,Wunderground v.1.15,2013-01-14 09:24:00,
2013-01-14 04:27:00,45.7,45.4,29.83,South,181,4.0,11.0,99,0.00,,,0.01,Wunderground v.1.15,2013-01-14 09:27:00,
2013-01-14 04:28:00,45.2,44.9,29.83,West,266,2.0,11.0,99,0.00,,,0.01,Wunderground v.1.15,2013-01-14 09:28:00,
2013-01-14 04:29:00,44.2,43.9,29.83,NW,313,1.0,11.0,99,0.00,,,0.01,Wunderground v.1.15,2013-01-14 09:29:00,
2013-01-14 04:32:00,42.9,42.6,29.83,NW,313,1.0,3.0,99,0.00,,,0.01,Wunderground v.1.15,2013-01-14 09:32:00,
2013-01-14 04:33:00,42.7,42.4,29.83,NNE,25,2.0,4.0,99,0.00,,,0.01,Wunderground v.1.15,2013-01-14 09:33:00,
2013-01-14 04:34:00,42.6,42.3,29.82,NE,36,0.0,4.0,99,0.00,,,0.01,Wunderground v.1.15,2013-01-14 09:34:00,
2013-01-14 04:37:00,43.4,43.1,29.82,SSE,167,0.0,6.0,99,0.00,,,0.01,Wunderground v.1.15,2013-01-14 09:37:00,
2013-01-14 04:38:00,43.4,43.1,29.82,SSE,167,0.0,6.0,99,0.00,,,0.01,Wunderground v.1.15,2013-01-14 09:38:00,
2013-01-14 04:39:00,43.7,43.4,29.82,SSE,168,0.0,6.0,99,0.00,,,0.01,Wunderground v.1.15,2013-01-14 09:39:00,
2013-01-14 04:42:00,44.8,44.5,29.82,West,270,0.0,5.0,99,0.00,,,0.01,Wunderground v.1.15,2013-01-14 09:42:00,
2013-01-14 04:43:00,44.9,44.6,29.82,West,270,0.0,5.0,99,0.00,,,0.01,Wunderground v.1.15,2013-01-14 09:43:00,
2013-01-14 04:45:00,45.1,44.8,29.82,West,270,0.0,5.0,99,0.00,,,0.01,Wunderground v.1.15,2013-01-14 09:45:00,
2013-01-14 04:48:00,45.0,44.7,29.82,SW,234,0.0,5.0,99,0.00,,,0.01,Wunderground v.1.15,2013-01-14 09:48:00,
2013-01-14 04:49:00,45.0,44.7,29.81,SW,234,0.0,5.0,99,0.00,,,0.01,Wunderground v.1.15,2013-01-14 09:49:00,
2013-01-14 04:50:00,44.9,44.6,29.81,North,5,2.0,2.0,99,0.00,,,0.01,Wunderground v.1.15,2013-01-14 09:50:00,
2013-01-14 04:53:00,44.7,44.4,29.81,SSW,194,0.0,3.0,99,0.00,,,0.01,Wunderground v.1.15,2013-01-14 09:53:00,
2013-01-14 04:55:00,44.6,44.3,29.81,West,266,0.0,3.0,99,0.00,,,0.01,Wunderground v.1.15,2013-01-14 09:55:00,
2013-01-14 04:58:00,44.8,44.5,29.80,SW,217,3.0,4.0,99,0.00,,,0.01,Wunderground v.1.15,2013-01-14 09:58:00,
2013-01-14 05:00:00,45.1,44.8,29.79,ESE,103,1.0,1.0,99,0.00,,,0.01,Wunderground v.1.15,2013-01-14 10:00:00,
2013-01-14 05:01:00,45.2,44.9,29.79,ESE,103,0.0,1.0,99,0.00,,,0.01,Wunderground v.1.15,2013-01-14 10:01:00,
2013-01-14 05:03:00,45.4,45.1,29.79,North,360,0.0,4.0,99,0.00,,,0.01,Wunderground v.1.15,2013-01-14 10:03:00,
2013-01-14 05:04:00,45.5,45.2,29.79,North,360,0.0,4.0,99,0.00,,,0.01,Wunderground v.1.15,2013-01-14 10:04:00,
2013-01-14 05:05:00,45.5,45.2,29.80,WNW,288,3.0,4.0,99,0.00,,,0.01,Wunderground v.1.15,2013-01-14 10:05:00,
2013-01-14 05:06:00,45.6,45.3,29.80,West,278,1.0,4.0,99,0.00,,,0.01,Wunderground v.1.15,2013-01-14 10:06:00,
2013-01-14 05:09:00,45.5,45.2,29.81,WNW,301,0.0,5.0,99,0.00,,,0.01,Wunderground v.1.15,2013-01-14 10:09:00,
2013-01-14 05:10:00,45.3,45.0,29.81,WNW,301,0.0,1.0,99,0.00,,,0.01,Wunderground v.1.15,2013-01-14 10:10:00,
2013-01-14 05:11:00,45.2,44.9,29.82,WNW,301,0.0,1.0,99,0.00,,,0.01,Wunderground v.1.15,2013-01-14 10:11:00,
2013-01-14 05:14:00,44.6,44.3,29.82,NNE,24,3.0,3.0,99,0.00,,,0.01,Wunderground v.1.15,2013-01-14 10:14:00,
2013-01-14 05:15:00,44.3,44.0,29.82,NE,40,0.0,3.0,99,0.00,,,0.01,Wunderground v.1.15,2013-01-14 10:15:00,
2013-01-14 05:17:00,44.1,43.8,29.82,NE,40,0.0,3.0,99,0.00,,,0.01,Wunderground v.1.15,2013-01-14 10:17:00,
2013-01-14 05:19:00,44.0,43.7,29.82,NE,40,0.0,3.0,99,0.00,,,0.01,Wunderground v.1.15,2013-01-14 10:19:00,
2013-01-14 05:21:00,43.9,43.6,29.82,NE,40,0.0,1.0,99,0.00,,,0.01,Wunderground v.1.15,2013-01-14 10:21:00,
2013-01-14 05:22:00,43.8,43.5,29.82,NE,40,0.0,1.0,99,0.00,,,0.01,Wunderground v.1.15,2013-01-14 10:22:00,
2013-01-14 05:24:00,43.9,43.6,29.83,NW,304,0.0,3.0,99,0.00,,,0.01,Wunderground v.1.15,2013-01-14 10:24:00,
2013-01-14 05:26:00,44.2,43.9,29.83,WNW,289,0.0,3.0,99,0.00,,,0.01,Wunderground v.1.15,2013-01-14 10:26:00,
2013-01-14 05:27:00,44.2,43.9,29.83,WNW,289,0.0,3.0,99,0.00,,,0.01,Wunderground v.1.15,2013-01-14 10:27:00,
2013-01-14 05:29:00,44.4,44.1,29.83,NW,321,2.0,3.0,99,0.00,,,0.01,Wunderground v.1.15,2013-01-14 10:29:00,
2013-01-14 05:31:00,44.6,44.3,29.83,NNW,342,0.0,4.0,99,0.00,,,0.01,Wunderground v.1.15,2013-01-14 10:31:00,
2013-01-14 05:32:00,44.7,44.4,29.83,WSW,237,0.0,4.0,99,0.00,,,0.01,Wunderground v.1.15,2013-01-14 10:32:00,
2013-01-14 05:34:00,44.7,44.4,29.84,West,263,4.0,4.0,99,0.00,,,0.01,Wunderground v.1.15,2013-01-14 10:34:00,
2013-01-14 05:36:00,45.0,44.7,29.84,WSW,254,0.0,7.0,99,0.00,,,0.01,Wunderground v.1.15,2013-01-14 10:36:00,
2013-01-14 05:37:00,45.2,44.9,29.84,WSW,254,1.0,7.0,99,0.00,,,0.01,Wunderground v.1.15,2013-01-14 10:37:00,
2013-01-14 05:39:00,45.6,45.3,29.84,West,272,2.0,7.0,99,0.00,,,0.01,Wunderground v.1.15,2013-01-14 10:39:00,
2013-01-14 05:42:00,46.1,45.8,29.84,West,275,2.0,4.0,99,0.00,,,0.01,Wunderground v.1.15,2013-01-14 10:42:00,
2013-01-14 05:43:00,46.1,45.8,29.84,WNW,284,1.0,4.0,99,0.00,,,0.01,Wunderground v.1.15,2013-01-14 10:43:00,
2013-01-14 05:45:00,46.2,45.9,29.84,West,272,2.0,4.0,99,0.00,,,0.01,Wunderground v.1.15,2013-01-14 10:45:00,
2013-01-14 05:47:00,46.6,46.3,29.83,WSW,247,0.0,5.0,99,0.00,,,0.01,Wunderground v.1.15,2013-01-14 10:47:00,
2013-01-14 05:48:00,46.9,46.6,29.83,WNW,294,1.0,5.0,99,0.00,,,0.01,Wunderground v.1.15,2013-01-14 10:48:00,
2013-01-14 05:50:00,47.1,46.8,29.84,WSW,254,2.0,2.0,99,0.00,,,0.01,Wunderground v.1.15,2013-01-14 10:50:00,
2013-01-14 05:52:00,47.2,46.9,29.84,West,268,2.0,6.0,99,0.00,,,0.02,Wunderground v.1.15,2013-01-14 10:52:00,
2013-01-14 05:53:00,47.3,47.0,29.84,West,281,2.0,6.0,99,0.00,,,0.02,Wunderground v.1.15,2013-01-14 10:53:00,
2013-01-14 05:55:00,47.2,46.9,29.85,WNW,282,0.0,6.0,99,0.00,,,0.02,Wunderground v.1.15,2013-01-14 10:55:00,
2013-01-14 05:57:00,47.3,47.0,29.85,NW,315,0.0,7.0,99,0.00,,,0.02,Wunderground v.1.15,2013-01-14 10:57:00,
2013-01-14 05:58:00,47.3,47.0,29.85,NW,315,1.0,7.0,99,0.00,,,0.02,Wunderground v.1.15,2013-01-14 10:58:00,
2013-01-14 06:00:00,47.3,47.0,29.84,NW,304,3.0,3.0,99,0.00,,,0.02,Wunderground v.1.15,2013-01-14 11:00:00,
2013-01-14 06:02:00,47.2,46.9,29.84,SSW,205,4.0,7.0,99,0.00,,,0.02,Wunderground v.1.15,2013-01-14 11:02:00,
2013-01-14 06:03:00,47.4,47.1,29.84,West,272,3.0,7.0,99,0.00,,,0.02,Wunderground v.1.15,2013-01-14 11:03:00,
2013-01-14 06:05:00,48.2,47.9,29.84,West,262,5.0,8.0,99,0.00,,,0.02,Wunderground v.1.15,2013-01-14 11:05:00,
2013-01-14 06:08:00,48.6,48.3,29.85,SW,229,3.0,10.0,99,0.00,,,0.02,Wunderground v.1.15,2013-01-14 11:08:00,
2013-01-14 06:09:00,48.6,48.3,29.84,NW,314,3.0,10.0,99,0.00,,,0.02,Wunderground v.1.15,2013-01-14 11:09:00,
2013-01-14 06:10:00,48.7,48.4,29.85,SW,234,0.0,5.0,99,0.00,,,0.02,Wunderground v.1.15,2013-01-14 11:10:00,
2013-01-14 06:13:00,48.6,48.3,29.85,WSW,244,4.0,5.0,99,0.00,,,0.02,Wunderground v.1.15,2013-01-14 11:13:00,
2013-01-14 06:14:00,48.6,48.3,29.85,SW,223,4.0,5.0,99,0.00,,,0.02,Wunderground v.1.15,2013-01-14 11:14:00,
2013-01-14 06:16:00,48.8,48.5,29.85,WNW,302,1.0,5.0,99,0.00,,,0.02,Wunderground v.1.15,2013-01-14 11:16:00,
2013-01-14 06:18:00,49.1,48.8,29.86,North,360,8.0,8.0,99,0.00,,,0.02,Wunderground v.1.15,2013-01-14 11:18:00,
2013-01-14 06:19:00,49.1,48.8,29.84,WSW,257,6.0,11.0,99,0.00,,,0.02,Wunderground v.1.15,2013-01-14 11:19:00,
2013-01-14 06:21:00,49.8,49.5,29.85,WNW,286,2.0,5.0,99,0.00,,,0.02,Wunderground v.1.15,2013-01-14 11:21:00,
2013-01-14 06:24:00,50.0,49.7,29.85,WSW,244,5.0,18.0,99,0.00,,,0.02,Wunderground v.1.15,2013-01-14 11:24:00,
2013-01-14 06:26:00,49.9,49.4,29.86,WSW,237,4.0,18.0,98,0.00,,,0.02,Wunderground v.1.15,2013-01-14 11:26:00,
2013-01-14 06:29:00,50.1,49.3,29.86,West,272,3.0,18.0,97,0.00,,,0.02,Wunderground v.1.15,2013-01-14 11:29:00,
2013-01-14 06:30:00,50.1,49.3,29.86,West,272,0.0,18.0,97,0.00,,,0.02,Wunderground v.1.15,2013-01-14 11:30:00,
2013-01-14 06:31:00,50.1,49.0,29.85,SW,235,3.0,5.0,96,0.00,,,0.02,Wunderground v.1.15,2013-01-14 11:31:00,
2013-01-14 06:35:00,50.0,48.9,29.86,South,190,4.0,5.0,96,0.00,,,0.02,Wunderground v.1.15,2013-01-14 11:35:00,
2013-01-14 06:37:00,50.5,49.4,29.86,South,175,5.0,18.0,96,0.00,,,0.02,Wunderground v.1.15,2013-01-14 11:37:00,
2013-01-14 06:40:00,50.7,49.3,29.87,WSW,248,13.0,13.0,95,0.00,,,0.02,Wunderground v.1.15,2013-01-14 11:40:00,
2013-01-14 06:42:00,50.9,49.8,29.87,SW,232,4.0,13.0,96,0.00,,,0.02,Wunderground v.1.15,2013-01-14 11:42:00,
2013-01-14 06:45:00,50.5,48.8,29.87,SW,234,5.0,13.0,94,0.00,,,0.02,Wunderground v.1.15,2013-01-14 11:45:00,
2013-01-14 06:46:00,50.6,49.2,29.87,WSW,243,8.0,14.0,95,0.00,,,0.02,Wunderground v.1.15,2013-01-14 11:46:00,
2013-01-14 06:47:00,50.8,49.4,29.87,WNW,300,7.0,14.0,95,0.00,,,0.02,Wunderground v.1.15,2013-01-14 11:47:00,
2013-01-14 06:50:00,51.0,49.0,29.87,SW,231,2.0,6.0,93,0.00,,,0.02,Wunderground v.1.15,2013-01-14 11:50:00,
2013-01-14 06:51:00,50.8,48.8,29.87,WSW,251,2.0,6.0,93,0.00,,,0.02,Wunderground v.1.15,2013-01-14 11:51:00,
2013-01-14 06:52:00,50.6,48.7,29.87,SW,231,4.0,6.0,93,0.00,,,0.02,Wunderground v.1.15,2013-01-14 11:52:00,
2013-01-14 06:55:00,50.3,48.6,29.88,South,172,12.0,12.0,94,0.00,,,0.02,Wunderground v.1.15,2013-01-14 11:55:00,
2013-01-14 06:56:00,50.4,49.0,29.87,WSW,251,10.0,12.0,95,0.00,,,0.02,Wunderground v.1.15,2013-01-14 11:56:00,
2013-01-14 06:57:00,50.7,49.6,29.87,WNW,293,2.0,12.0,96,0.00,,,0.02,Wunderground v.1.15,2013-01-14 11:57:00,
2013-01-14 07:00:00,50.9,49.2,29.88,WSW,256,4.0,4.0,94,0.00,,,0.02,Wunderground v.1.15,2013-01-14 12:00:00,
2013-01-14 07:01:00,50.8,49.1,29.88,NW,304,3.0,4.0,94,0.00,,,0.02,Wunderground v.1.15,2013-01-14 12:01:00,
2013-01-14 07:03:00,50.6,48.9,29.88,SSE,164,5.0,8.0,94,0.00,,,0.02,Wunderground v.1.15,2013-01-14 12:03:00,
2013-01-14 07:05:00,50.5,48.8,29.89,West,264,2.0,8.0,94,0.00,,,0.02,Wunderground v.1.15,2013-01-14 12:05:00,
2013-01-14 07:06:00,50.4,48.7,29.89,South,190,5.0,8.0,94,0.00,,,0.02,Wunderground v.1.15,2013-01-14 12:06:00,
2013-01-14 07:07:00,50.4,48.7,29.88,South,185,6.0,8.0,94,0.00,,,0.02,Wunderground v.1.15,2013-01-14 12:07:00,
2013-01-14 07:08:00,50.4,49.0,29.88,WSW,251,7.0,17.0,95,0.00,,,0.02,Wunderground v.1.15,2013-01-14 12:08:00,
2013-01-14 07:11:00,50.8,49.4,29.88,SW,227,0.0,4.0,95,0.00,,,0.02,Wunderground v.1.15,2013-01-14 12:11:00,
2013-01-14 07:12:00,50.7,49.0,29.89,SSW,198,2.0,4.0,94,0.00,,,0.02,Wunderground v.1.15,2013-01-14 12:12:00,
2013-01-14 07:13:00,50.7,49.0,29.89,SSW,210,0.0,4.0,94,0.00,,,0.02,Wunderground v.1.15,2013-01-14 12:13:00,
2013-01-14 07:16:00,50.8,49.4,29.89,SSW,198,8.0,8.0,95,0.00,,,0.02,Wunderground v.1.15,2013-01-14 12:16:00,
2013-01-14 07:17:00,50.9,49.5,29.89,NW,304,4.0,10.0,95,0.00,,,0.02,Wunderground v.1.15,2013-01-14 12:17:00,
2013-01-14 07:18:00,51.0,49.6,29.89,WNW,298,5.0,11.0,95,0.00,,,0.02,Wunderground v.1.15,2013-01-14 12:18:00,
2013-01-14 07:21:00,50.5,48.6,29.90,SSE,153,8.0,18.0,93,0.00,,,0.02,Wunderground v.1.15,2013-01-14 12:21:00,
2013-01-14 07:22:00,50.6,48.7,29.89,WNW,292,10.0,18.0,93,0.00,,,0.02,Wunderground v.1.15,2013-01-14 12:22:00,
2013-01-14 07:23:00,50.5,48.8,29.90,SSW,213,4.0,18.0,94,0.00,,,0.02,Wunderground v.1.15,2013-01-14 12:23:00,
2013-01-14 07:26:00,49.8,47.6,29.91,WSW,246,6.0,18.0,92,0.00,,,0.02,Wunderground v.1.15,2013-01-14 12:26:00,
2013-01-14 07:27:00,49.6,47.9,29.91,NNW,339,4.0,18.0,94,0.00,,,0.02,Wunderground v.1.15,2013-01-14 12:27:00,
2013-01-14 07:28:00,49.5,47.8,29.91,WSW,248,2.0,18.0,94,0.00,,,0.02,Wunderground v.1.15,2013-01-14 12:28:00,
2013-01-14 07:29:00,49.3,47.6,29.91,SSW,196,3.0,18.0,94,0.00,,,0.02,Wunderground v.1.15,2013-01-14 12:29:00,
2013-01-14 07:32:00,48.4,46.5,29.91,WSW,251,6.0,6.0,93,0.00,,,0.02,Wunderground v.1.15,2013-01-14 12:32:00,
2013-01-14 07:33:00,48.1,46.5,29.91,SW,224,3.0,10.0,94,0.00,,,0.02,Wunderground v.1.15,2013-01-14 12:33:00,
2013-01-14 07:34:00,47.8,46.4,29.91,SW,234,3.0,10.0,95,0.00,,,0.02,Wunderground v.1.15,2013-01-14 12:34:00,
2013-01-14 07:37:00,47.6,46.2,29.91,WSW,238,19.0,22.0,95,0.00,,,0.02,Wunderground v.1.15,2013-01-14 12:37:00,
2013-01-14 07:38:00,47.9,47.1,29.92,WSW,256,4.0,22.0,97,0.00,,,0.02,Wunderground v.1.15,2013-01-14 12:38:00,
2013-01-14 07:39:00,47.9,47.1,29.92,SW,235,3.0,22.0,97,0.00,,,0.02,Wunderground v.1.15,2013-01-14 12:39:00,
2013-01-14 07:42:00,47.8,46.7,29.91,SW,234,2.0,5.0,96,0.00,,,0.02,Wunderground v.1.15,2013-01-14 12:42:00,
2013-01-14 07:43:00,47.7,46.9,29.91,WSW,253,0.0,5.0,97,0.00,,,0.02,Wunderground v.1.15,2013-01-14 12:43:00,
2013-01-14 07:45:00,47.7,46.6,29.91,SSW,202,2.0,5.0,96,0.00,,,0.02,Wunderground v.1.15,2013-01-14 12:45:00,
2013-01-14 07:47:00,47.6,46.8,29.91,WSW,245,3.0,9.0,97,0.00,,,0.02,Wunderground v.1.15,2013-01-14 12:47:00,
2013-01-14 07:48:00,47.8,47.0,29.91,WSW,246,0.0,9.0,97,0.00,,,0.02,Wunderground v.1.15,2013-01-14 12:48:00,
2013-01-14 07:50:00,47.9,47.1,29.91,South,181,1.0,2.0,97,0.00,,,0.02,Wunderground v.1.15,2013-01-14 12:50:00,
2013-01-14 07:52:00,47.8,47.0,29.92,WSW,246,0.0,5.0,97,0.00,,,0.02,Wunderground v.1.15,2013-01-14 12:52:00,
2013-01-14 07:53:00,47.8,47.0,29.92,West,261,2.0,5.0,97,0.00,,,0.02,Wunderground v.1.15,2013-01-14 12:53:00,
2013-01-14 07:55:00,47.8,47.0,29.92,West,272,7.0,15.0,97,0.00,,,0.02,Wunderground v.1.15,2013-01-14 12:55:00,
2013-01-14 07:57:00,48.1,47.6,29.92,SSW,193,5.0,15.0,98,0.00,,,0.02,Wunderground v.1.15,2013-01-14 12:57:00,
2013-01-14 07:59:00,48.0,47.2,29.92,SW,217,6.0,15.0,97,0.00,,,0.02,Wunderground v.1.15,2013-01-14 12:59:00,
2013-01-14 08:00:00,48.0,47.2,29.92,West,279,2.0,4.0,97,0.00,,,0.02,Wunderground v.1.15,2013-01-14 13:00:00,
2013-01-14 08:01:00,47.9,46.8,29.93,SW,220,3.0,4.0,96,0.00,,,0.02,Wunderground v.1.15,2013-01-14 13:01:00,
2013-01-14 08:02:00,47.8,46.7,29.93,SW,234,1.0,4.0,96,0.00,,,0.02,Wunderground v.1.15,2013-01-14 13:02:00,
2013-01-14 08:04:00,47.7,46.6,29.93,West,268,0.0,9.0,96,0.00,,,0.02,Wunderground v.1.15,2013-01-14 13:04:00,
2013-01-14 08:05:00,47.6,46.5,29.93,South,184,3.0,9.0,96,0.00,,,0.02,Wunderground v.1.15,2013-01-14 13:05:00,
2013-01-14 08:06:00,47.6,46.5,29.93,SW,234,8.0,9.0,96,0.00,,,0.02,Wunderground v.1.15,2013-01-14 13:06:00,
2013-01-14 08:07:00,47.5,46.7,29.94,SW,216,1.0,9.0,97,0.00,,,0.02,Wunderground v.1.15,2013-01-14 13:07:00,
2013-01-14 08:09:00,47.2,46.1,29.94,WSW,246,6.0,15.0,96,0.00,,,0.02,Wunderground v.1.15,2013-01-14 13:09:00,
2013-01-14 08:10:00,47.1,46.0,29.94,West,261,5.0,7.0,96,0.00,,,0.02,Wunderground v.1.15,2013-01-14 13:10:00,
2013-01-14 08:11:00,47.1,45.7,29.94,WSW,258,7.0,16.0,95,0.00,,,0.02,Wunderground v.1.15,2013-01-14 13:11:00,
2013-01-14 08:12:00,47.1,46.0,29.94,NNE,14,5.0,16.0,96,0.00,,,0.02,Wunderground v.1.15,2013-01-14 13:12:00,
2013-01-14 08:14:00,47.1,46.0,29.94,West,264,8.0,16.0,96,0.00,,,0.02,Wunderground v.1.15,2013-01-14 13:14:00,
2013-01-14 08:16:00,47.1,45.7,29.94,SW,219,3.0,16.0,95,0.00,,,0.02,Wunderground v.1.15,2013-01-14 13:16:00,
2013-01-14 08:17:00,46.9,45.3,29.94,WNW,284,3.0,16.0,94,0.00,,,0.02,Wunderground v.1.15,2013-01-14 13:17:00,
2013-01-14 08:20:00,46.7,45.1,29.94,WSW,252,3.0,6.0,94,0.00,,,0.02,Wunderground v.1.15,2013-01-14 13:20:00,
2013-01-14 08:21:00,46.5,45.1,29.94,South,188,1.0,6.0,95,0.00,,,0.02,Wunderground v.1.15,2013-01-14 13:21:00,
2013-01-14 08:23:00,46.4,45.0,29.93,SSE,159,2.0,6.0,95,0.00,,,0.02,Wunderground v.1.15,2013-01-14 13:23:00,
2013-01-14 08:25:00,46.5,45.4,29.94,West,279,3.0,6.0,96,0.00,,,0.02,Wunderground v.1.15,2013-01-14 13:25:00,
2013-01-14 08:26:00,46.5,45.4,29.94,WNW,298,3.0,6.0,96,0.00,,,0.02,Wunderground v.1.15,2013-01-14 13:26:00,
2013-01-14 08:27:00,46.6,45.5,29.94,South,175,0.0,6.0,96,0.00,,,0.02,Wunderground v.1.15,2013-01-14 13:27:00,
2013-01-14 08:28:00,46.7,45.6,29.94,WNW,292,0.0,7.0,96,0.00,,,0.02,Wunderground v.1.15,2013-01-14 13:28:00,
2013-01-14 08:30:00,46.6,45.5,29.94,South,186,1.0,2.0,96,0.00,,,0.02,Wunderground v.1.15,2013-01-14 13:30:00,
2013-01-14 08:31:00,46.5,45.4,29.94,NW,304,0.0,4.0,96,0.00,,,0.02,Wunderground v.1.15,2013-01-14 13:31:00,
2013-01-14 08:32:00,46.6,45.5,29.94,WSW,255,3.0,5.0,96,0.00,,,0.02,Wunderground v.1.15,2013-01-14 13:32:00,
2013-01-14 08:34:00,46.5,45.1,29.94,West,259,9.0,9.0,95,0.00,,,0.02,Wunderground v.1.15,2013-01-14 13:34:00,
2013-01-14 08:35:00,46.5,45.1,29.94,WSW,248,8.0,11.0,95,0.00,,,0.02,Wunderground v.1.15,2013-01-14 13:35:00,
2013-01-14 08:37:00,46.5,45.1,29.94,SSW,192,14.0,14.0,95,0.00,,,0.02,Wunderground v.1.15,2013-01-14 13:37:00,
2013-01-14 08:38:00,46.5,44.6,29.94,West,278,5.0,14.0,93,0.00,,,0.02,Wunderground v.1.15,2013-01-14 13:38:00,
2013-01-14 08:39:00,46.8,45.2,29.94,West,273,9.0,15.0,94,0.00,,,0.02,Wunderground v.1.15,2013-01-14 13:39:00,
2013-01-14 08:40:00,47.0,45.4,29.95,West,262,6.0,8.0,94,0.00,,,0.02,Wunderground v.1.15,2013-01-14 13:40:00,
2013-01-14 08:42:00,47.2,45.0,29.94,WSW,237,7.0,9.0,92,0.00,,,0.02,Wunderground v.1.15,2013-01-14 13:42:00,
2013-01-14 08:43:00,47.1,44.9,29.94,SW,217,3.0,9.0,92,0.00,,,0.02,Wunderground v.1.15,2013-01-14 13:43:00,
2013-01-14 08:45:00,46.9,44.4,29.94,West,267,1.0,10.0,91,0.00,,,0.02,Wunderground v.1.15,2013-01-14 13:45:00,
2013-01-14 08:47:00,46.5,44.0,29.94,SW,223,5.0,10.0,91,0.00,,,0.02,Wunderground v.1.15,2013-01-14 13:47:00,
2013-01-14 08:48:00,46.5,44.3,29.95,West,273,7.0,13.0,92,0.00,,,0.02,Wunderground v.1.15,2013-01-14 13:48:00,
2013-01-14 08:50:00,46.7,44.8,29.94,West,280,4.0,5.0,93,0.00,,,0.02,Wunderground v.1.15,2013-01-14 13:50:00,
2013-01-14 08:52:00,46.7,44.5,29.94,SW,235,2.0,7.0,92,0.00,,,0.02,Wunderground v.1.15,2013-01-14 13:52:00,
2013-01-14 08:54:00,46.5,44.0,29.95,West,264,1.0,7.0,91,0.00,,,0.02,Wunderground v.1.15,2013-01-14 13:54:00,
2013-01-14 08:56:00,46.3,44.1,29.94,WNW,293,6.0,7.0,92,0.00,,,0.02,Wunderground v.1.15,2013-01-14 13:56:00,
2013-01-14 08:57:00,46.3,44.4,29.95,West,263,5.0,11.0,93,0.00,,,0.02,Wunderground v.1.15,2013-01-14 13:57:00,
2013-01-14 08:58:00,46.5,44.3,29.95,WNW,302,10.0,18.0,92,0.00,,,0.02,Wunderground v.1.15,2013-01-14 13:58:00,
2013-01-14 08:59:00,46.7,44.8,29.95,West,270,6.0,18.0,93,0.00,,,0.02,Wunderground v.1.15,2013-01-14 13:59:00,
2013-01-14 09:01:00,47.0,44.8,29.95,NW,317,1.0,6.0,92,0.00,,,0.02,Wunderground v.1.15,2013-01-14 14:01:00,
2013-01-14 09:02:00,47.1,44.9,29.95,SW,236,5.0,8.0,92,0.00,,,0.02,Wunderground v.1.15,2013-01-14 14:02:00,
2013-01-14 09:03:00,47.1,44.6,29.95,WSW,253,3.0,8.0,91,0.00,,,0.02,Wunderground v.1.15,2013-01-14 14:03:00,
2013-01-14 09:04:00,47.1,44.6,29.95,WSW,240,7.0,11.0,91,0.00,,,0.02,Wunderground v.1.15,2013-01-14 14:04:00,
2013-01-14 09:06:00,46.9,44.1,29.94,West,269,3.0,11.0,90,0.00,,,0.02,Wunderground v.1.15,2013-01-14 14:06:00,
2013-01-14 09:07:00,46.7,43.9,29.95,SSW,192,0.0,11.0,90,0.00,,,0.02,Wunderground v.1.15,2013-01-14 14:07:00,
2013-01-14 09:08:00,46.7,43.9,29.95,West,273,4.0,11.0,90,0.00,,,0.02,Wunderground v.1.15,2013-01-14 14:08:00,
2013-01-14 09:10:00,46.5,44.0,29.94,SW,234,1.0,11.0,91,0.00,,,0.02,Wunderground v.1.15,2013-01-14 14:10:00,
2013-01-14 09:11:00,46.4,43.9,29.94,SW,234,0.0,4.0,91,0.00,,,0.02,Wunderground v.1.15,2013-01-14 14:11:00,
2013-01-14 09:12:00,46.3,43.8,29.94,NW,312,2.0,4.0,91,0.00,,,0.02,Wunderground v.1.15,2013-01-14 14:12:00,
2013-01-14 09:13:00,46.3,44.1,29.94,SSW,207,10.0,10.0,92,0.00,,,0.02,Wunderground v.1.15,2013-01-14 14:13:00,
2013-01-14 09:15:00,46.5,44.3,29.95,West,270,3.0,10.0,92,0.00,,,0.02,Wunderground v.1.15,2013-01-14 14:15:00,
2013-01-14 09:16:00,46.7,44.5,29.94,West,263,5.0,10.0,92,0.00,,,0.02,Wunderground v.1.15,2013-01-14 14:16:00,
2013-01-14 09:17:00,46.9,44.7,29.94,WSW,246,0.0,10.0,92,0.00,,,0.02,Wunderground v.1.15,2013-01-14 14:17:00,
2013-01-14 09:18:00,47.0,44.5,29.95,SW,227,4.0,10.0,91,0.00,,,0.02,Wunderground v.1.15,2013-01-14 14:18:00,
2013-01-14 09:20:00,47.0,44.5,29.95,West,277,2.0,2.0,91,0.00,,,0.02,Wunderground v.1.15,2013-01-14 14:20:00,
2013-01-14 09:21:00,47.0,44.2,29.94,WNW,295,2.0,4.0,90,0.00,,,0.02,Wunderground v.1.15,2013-01-14 14:21:00,
2013-01-14 09:22:00,47.0,44.2,29.95,WNW,282,5.0,6.0,90,0.00,,,0.02,Wunderground v.1.15,2013-01-14 14:22:00,
2013-01-14 09:23:00,47.0,44.2,29.94,ENE,63,1.0,6.0,90,0.00,,,0.02,Wunderground v.1.15,2013-01-14 14:23:00,
2013-01-14 09:25:00,47.1,44.6,29.94,SW,231,5.0,6.0,91,0.00,,,0.02,Wunderground v.1.15,2013-01-14 14:25:00,
2013-01-14 09:27:00,47.3,44.8,29.94,WSW,251,1.0,8.0,91,0.00,,,0.02,Wunderground v.1.15,2013-01-14 14:27:00,
2013-01-14 09:28:00,47.4,44.9,29.94,WSW,251,1.0,8.0,91,0.00,,,0.02,Wunderground v.1.15,2013-01-14 14:28:00,
2013-01-14 09:29:00,47.5,44.7,29.95,WSW,248,3.0,8.0,90,0.00,,,0.02,Wunderground v.1.15,2013-01-14 14:29:00,
2013-01-14 09:30:00,47.6,44.8,29.94,West,265,1.0,3.0,90,0.00,,,0.02,Wunderground v.1.15,2013-01-14 14:30:00,
2013-01-14 09:33:00,47.4,44.3,29.95,WNW,284,1.0,6.0,89,0.00,,,0.02,Wunderground v.1.15,2013-01-14 14:33:00,
2013-01-14 09:34:00,47.4,44.6,29.94,West,271,5.0,6.0,90,0.00,,,0.02,Wunderground v.1.15,2013-01-14 14:34:00,
2013-01-14 09:35:00,47.4,44.9,29.94,SW,215,2.0,6.0,91,0.00,,,0.02,Wunderground v.1.15,2013-01-14 14:35:00,
2013-01-14 09:38:00,47.4,44.6,29.95,SW,215,3.0,6.0,90,0.00,,,0.02,Wunderground v.1.15,2013-01-14 14:38:00,
2013-01-14 09:39:00,47.3,44.8,29.95,West,267,3.0,6.0,91,0.00,,,0.02,Wunderground v.1.15,2013-01-14 14:39:00,
2013-01-14 09:40:00,47.2,44.4,29.95,West,267,3.0,4.0,90,0.00,,,0.02,Wunderground v.1.15,2013-01-14 14:40:00,
2013-01-14 09:43:00,47.0,44.2,29.95,SSW,205,1.0,5.0,90,0.00,,,0.02,Wunderground v.1.15,2013-01-14 14:43:00,
2013-01-14 09:44:00,47.0,44.2,29.95,WNW,295,4.0,6.0,90,0.00,,,0.02,Wunderground v.1.15,2013-01-14 14:44:00,
2013-01-14 09:46:00,46.9,44.4,29.95,WNW,295,3.0,6.0,91,0.00,,,0.02,Wunderground v.1.15,2013-01-14 14:46:00,
2013-01-14 09:48:00,46.9,44.1,29.95,WSW,257,0.0,6.0,90,0.00,,,0.02,Wunderground v.1.15,2013-01-14 14:48:00,
2013-01-14 09:50:00,46.9,44.4,29.95,WSW,257,0.0,6.0,91,0.00,,,0.02,Wunderground v.1.15,2013-01-14 14:50:00,
2013-01-14 09:51:00,46.9,44.1,29.95,WNW,297,4.0,6.0,90,0.00,,,0.02,Wunderground v.1.15,2013-01-14 14:51:00,
2013-01-14 09:53:00,46.8,44.0,29.95,West,277,9.0,9.0,90,0.00,,,0.02,Wunderground v.1.15,2013-01-14 14:53:00,
2013-01-14 09:55:00,47.0,44.2,29.95,WSW,238,6.0,9.0,90,0.00,,,0.02,Wunderground v.1.15,2013-01-14 14:55:00,
2013-01-14 09:57:00,47.2,44.1,29.95,WSW,250,5.0,9.0,89,0.00,,,0.02,Wunderground v.1.15,2013-01-14 14:57:00,
2013-01-14 09:59:00,47.6,43.6,29.95,SW,234,11.0,16.0,86,0.00,,,0.02,Wunderground v.1.15,2013-01-14 14:59:00,
2013-01-14 10:00:00,48.0,43.7,29.95,WSW,254,5.0,5.0,85,0.00,,,0.02,Wunderground v.1.15,2013-01-14 15:00:00,
2013-01-14 10:02:00,47.9,43.3,29.95,WSW,244,4.0,7.0,84,0.00,,,0.02,Wunderground v.1.15,2013-01-14 15:02:00,
2013-01-14 10:04:00,47.7,43.1,29.95,West,265,2.0,7.0,84,0.00,,,0.02,Wunderground v.1.15,2013-01-14 15:04:00,
2013-01-14 10:06:00,47.1,42.5,29.95,West,269,4.0,7.0,84,0.00,,,0.02,Wunderground v.1.15,2013-01-14 15:06:00,
2013-01-14 10:07:00,46.9,42.3,29.95,SW,220,1.0,7.0,84,0.00,,,0.02,Wunderground v.1.15,2013-01-14 15:07:00,
2013-01-14 10:09:00,46.5,42.5,29.95,WSW,252,12.0,12.0,86,0.00,,,0.02,Wunderground v.1.15,2013-01-14 15:09:00,
2013-01-14 10:10:00,46.4,42.4,29.95,SSW,196,6.0,6.0,86,0.00,,,0.02,Wunderground v.1.15,2013-01-14 15:10:00,
2013-01-14 10:11:00,46.4,41.8,29.95,WSW,238,7.0,13.0,84,0.00,,,0.02,Wunderground v.1.15,2013-01-14 15:11:00,
2013-01-14 10:12:00,46.5,41.9,29.95,West,269,4.0,13.0,84,0.00,,,0.02,Wunderground v.1.15,2013-01-14 15:12:00,
2013-01-14 10:14:00,46.6,41.7,29.95,WSW,244,2.0,14.0,83,0.00,,,0.02,Wunderground v.1.15,2013-01-14 15:14:00,
2013-01-14 10:16:00,46.8,41.9,29.96,West,275,5.0,14.0,83,0.00,,,0.02,Wunderground v.1.15,2013-01-14 15:16:00,
2013-01-14 10:17:00,46.8,41.6,29.95,WSW,256,4.0,14.0,82,0.00,,,0.02,Wunderground v.1.15,2013-01-14 15:17:00,
2013-01-14 10:19:00,46.7,41.2,29.95,WNW,283,7.0,16.0,81,0.00,,,0.02,Wunderground v.1.15,2013-01-14 15:19:00,
2013-01-14 10:21:00,46.8,41.3,29.95,West,263,5.0,9.0,81,0.00,,,0.02,Wunderground v.1.15,2013-01-14 15:21:00,
2013-01-14 10:22:00,46.9,41.1,29.95,WSW,256,9.0,10.0,80,0.00,,,0.02,Wunderground v.1.15,2013-01-14 15:22:00,
2013-01-14 10:24:00,46.9,40.7,29.95,WSW,257,12.0,15.0,79,0.00,,,0.02,Wunderground v.1.15,2013-01-14 15:24:00,
2013-01-14 10:26:00,47.0,40.5,29.96,NW,323,9.0,15.0,78,0.00,,,0.02,Wunderground v.1.15,2013-01-14 15:26:00,
2013-01-14 10:28:00,47.2,40.7,29.95,WSW,247,8.0,15.0,78,0.00,,,0.02,Wunderground v.1.15,2013-01-14 15:28:00,
2013-01-14 10:30:00,47.2,40.7,29.95,WSW,258,9.0,17.0,78,0.00,,,0.02,Wunderground v.1.15,2013-01-14 15:30:00,
2013-01-14 10:31:00,47.2,40.7,29.95,West,266,9.0,17.0,78,0.00,,,0.02,Wunderground v.1.15,2013-01-14 15:31:00,
2013-01-14 10:33:00,47.1,40.6,29.95,SSE,163,6.0,17.0,78,0.00,,,0.02,Wunderground v.1.15,2013-01-14 15:33:00,
2013-01-14 10:34:00,47.0,40.5,29.95,WSW,244,13.0,17.0,78,0.00,,,0.02,Wunderground v.1.15,2013-01-14 15:34:00,
2013-01-14 10:36:00,46.7,40.2,29.95,SW,215,6.0,17.0,78,0.00,,,0.02,Wunderground v.1.15,2013-01-14 15:36:00,
2013-01-14 10:38:00,46.5,40.0,29.96,WSW,252,10.0,19.0,78,0.00,,,0.02,Wunderground v.1.15,2013-01-14 15:38:00,
2013-01-14 10:39:00,46.4,40.2,29.95,WSW,239,10.0,19.0,79,0.00,,,0.02,Wunderground v.1.15,2013-01-14 15:39:00,
2013-01-14 10:41:00,46.1,39.9,29.96,NW,323,7.0,10.0,79,0.00,,,0.02,Wunderground v.1.15,2013-01-14 15:41:00,
2013-01-14 10:43:00,46.1,39.9,29.96,NW,315,8.0,23.0,79,0.00,,,0.02,Wunderground v.1.15,2013-01-14 15:43:00,
2013-01-14 10:44:00,46.1,39.9,29.95,WSW,257,10.0,23.0,79,0.00,,,0.02,Wunderground v.1.15,2013-01-14 15:44:00,
2013-01-14 10:46:00,46.0,39.9,29.95,WSW,252,9.0,23.0,79,0.00,,,0.02,Wunderground v.1.15,2013-01-14 15:46:00,
2013-01-14 10:48:00,45.8,39.7,29.95,WSW,253,16.0,23.0,79,0.00,,,0.02,Wunderground v.1.15,2013-01-14 15:48:00,
2013-01-14 10:49:00,45.8,39.7,29.95,West,272,7.0,23.0,79,0.00,,,0.02,Wunderground v.1.15,2013-01-14 15:49:00,
2013-01-14 10:51:00,45.9,39.8,29.96,West,261,9.0,15.0,79,0.00,,,0.02,Wunderground v.1.15,2013-01-14 15:51:00,
2013-01-14 10:53:00,46.0,40.2,29.96,West,267,9.0,15.0,80,0.00,,,0.02,Wunderground v.1.15,2013-01-14 15:53:00,
2013-01-14 10:54:00,46.0,40.2,29.96,West,262,7.0,17.0,80,0.00,,,0.02,Wunderground v.1.15,2013-01-14 15:54:00,
2013-01-14 10:56:00,45.9,39.8,29.96,WSW,237,9.0,17.0,79,0.00,,,0.02,Wunderground v.1.15,2013-01-14 15:56:00,
2013-01-14 10:58:00,45.8,39.7,29.96,NW,308,10.0,23.0,79,0.00,,,0.02,Wunderground v.1.15,2013-01-14 15:58:00,
2013-01-14 11:00:00,45.5,39.4,29.96,SW,234,8.0,10.0,79,0.00,,,0.02,Wunderground v.1.15,2013-01-14 16:00:00,
2013-01-14 11:01:00,45.4,39.6,29.96,West,261,10.0,18.0,80,0.00,,,0.02,Wunderground v.1.15,2013-01-14 16:01:00,
2013-01-14 11:02:00,45.3,39.5,29.96,NW,306,14.0,18.0,80,0.00,,,0.02,Wunderground v.1.15,2013-01-14 16:02:00,
2013-01-14 11:03:00,45.3,39.5,29.96,West,280,11.0,21.0,80,0.00,,,0.02,Wunderground v.1.15,2013-01-14 16:03:00,
2013-01-14 11:05:00,45.2,39.4,29.96,West,277,8.0,21.0,80,0.00,,,0.03,Wunderground v.1.15,2013-01-14 16:05:00,
2013-01-14 11:06:00,45.1,39.3,29.96,WSW,253,9.0,21.0,80,0.00,,,0.03,Wunderground v.1.15,2013-01-14 16:06:00,
2013-01-14 11:07:00,45.1,39.3,29.96,SSW,213,13.0,21.0,80,0.00,,,0.03,Wunderground v.1.15,2013-01-14 16:07:00,
2013-01-14 11:08:00,45.0,39.2,29.96,WNW,286,9.0,21.0,80,0.00,,,0.03,Wunderground v.1.15,2013-01-14 16:08:00,
2013-01-14 11:10:00,44.8,39.3,29.96,West,261,9.0,19.0,81,0.00,,,0.03,Wunderground v.1.15,2013-01-14 16:10:00,
2013-01-14 11:11:00,44.7,39.2,29.97,WSW,257,13.0,19.0,81,0.00,,,0.03,Wunderground v.1.15,2013-01-14 16:11:00,
2013-01-14 11:13:00,44.6,39.1,29.97,WNW,284,12.0,19.0,81,0.00,,,0.03,Wunderground v.1.15,2013-01-14 16:13:00,
2013-01-14 11:15:00,44.2,39.1,29.97,WNW,292,8.0,19.0,82,0.00,,,0.03,Wunderground v.1.15,2013-01-14 16:15:00,
2013-01-14 11:17:00,44.1,39.0,29.97,West,261,5.0,21.0,82,0.00,,,0.03,Wunderground v.1.15,2013-01-14 16:17:00,
2013-01-14 11:18:00,44.0,39.2,29.97,West,262,14.0,21.0,83,0.00,,,0.03,Wunderground v.1.15,2013-01-14 16:18:00,
2013-01-14 11:20:00,43.8,39.0,29.97,West,268,10.0,17.0,83,0.00,,,0.03,Wunderground v.1.15,2013-01-14 16:20:00,
2013-01-14 11:22:00,43.9,39.1,29.98,West,275,10.0,21.0,83,0.00,,,0.03,Wunderground v.1.15,2013-01-14 16:22:00,
2013-01-14 11:23:00,44.0,38.9,29.97,WSW,248,15.0,21.0,82,0.00,,,0.03,Wunderground v.1.15,2013-01-14 16:23:00,
2013-01-14 11:24:00,44.1,39.0,29.97,SW,217,9.0,21.0,82,0.00,,,0.03,Wunderground v.1.15,2013-01-14 16:24:00,
2013-01-14 11:26:00,43.8,38.3,29.97,WSW,239,5.0,21.0,81,0.00,,,0.03,Wunderground v.1.15,2013-01-14 16:26:00,
2013-01-14 11:28:00,43.6,38.8,29.97,West,264,13.0,21.0,83,0.00,,,0.03,Wunderground v.1.15,2013-01-14 16:28:00,
2013-01-14 11:29:00,43.6,38.8,29.97,WSW,246,8.0,21.0,83,0.00,,,0.03,Wunderground v.1.15,2013-01-14 16:29:00,
2013-01-14 11:31:00,43.6,38.8,29.97,West,271,6.0,10.0,83,0.00,,,0.03,Wunderground v.1.15,2013-01-14 16:31:00,
2013-01-14 11:33:00,43.4,38.6,29.97,West,274,11.0,19.0,83,0.00,,,0.03,Wunderground v.1.15,2013-01-14 16:33:00,
2013-01-14 11:34:00,43.4,38.6,29.97,West,263,8.0,19.0,83,0.00,,,0.03,Wunderground v.1.15,2013-01-14 16:34:00,
2013-01-14 11:36:00,43.3,38.5,29.97,West,270,10.0,20.0,83,0.00,,,0.03,Wunderground v.1.15,2013-01-14 16:36:00,
2013-01-14 11:38:00,43.1,38.3,29.97,SSE,163,7.0,20.0,83,0.00,,,0.03,Wunderground v.1.15,2013-01-14 16:38:00,
2013-01-14 11:39:00,43.1,38.6,29.97,WNW,296,13.0,20.0,84,0.00,,,0.03,Wunderground v.1.15,2013-01-14 16:39:00,
2013-01-14 11:41:00,43.0,38.5,29.97,WNW,291,10.0,19.0,84,0.00,,,0.03,Wunderground v.1.15,2013-01-14 16:41:00,
2013-01-14 11:44:00,43.1,38.6,29.98,West,267,9.0,20.0,84,0.00,,,0.03,Wunderground v.1.15,2013-01-14 16:44:00,
2013-01-14 11:45:00,43.1,38.6,29.98,West,275,8.0,20.0,84,0.00,,,0.03,Wunderground v.1.15,2013-01-14 16:45:00,
2013-01-14 11:47:00,43.0,38.5,29.98,WSW,241,7.0,20.0,84,0.00,,,0.03,Wunderground v.1.15,2013-01-14 16:47:00,
2013-01-14 11:49:00,42.8,38.3,29.97,SSW,202,21.0,21.0,84,0.00,,,0.03,Wunderground v.1.15,2013-01-14 16:49:00,
2013-01-14 11:50:00,42.7,38.2,29.98,WSW,258,6.0,15.0,84,0.00,,,0.03,Wunderground v.1.15,2013-01-14 16:50:00,
2013-01-14 11:52:00,42.7,38.5,29.98,WSW,254,9.0,15.0,85,0.00,,,0.03,Wunderground v.1.15,2013-01-14 16:52:00,
2013-01-14 11:54:00,42.6,38.4,29.98,West,259,15.0,18.0,85,0.00,,,0.03,Wunderground v.1.15,2013-01-14 16:54:00,
2013-01-14 11:55:00,42.6,38.4,29.98,West,273,11.0,18.0,85,0.00,,,0.03,Wunderground v.1.15,2013-01-14 16:55:00,
2013-01-14 11:57:00,42.4,38.2,29.98,West,278,8.0,18.0,85,0.00,,,0.03,Wunderground v.1.15,2013-01-14 16:57:00,
2013-01-14 11:59:00,42.3,38.4,29.98,WNW,285,9.0,18.0,86,0.00,,,0.03,Wunderground v.1.15,2013-01-14 16:59:00,
2013-01-14 12:00:00,42.3,38.4,29.98,West,270,8.0,10.0,86,0.00,,,0.03,Wunderground v.1.15,2013-01-14 17:00:00,
2013-01-14 12:01:00,42.2,38.3,29.98,WSW,257,7.0,10.0,86,0.00,,,0.03,Wunderground v.1.15,2013-01-14 17:01:00,
2013-01-14 12:03:00,42.0,38.1,29.98,West,264,7.0,11.0,86,0.00,,,0.03,Wunderground v.1.15,2013-01-14 17:03:00,
2013-01-14 12:04:00,41.9,38.3,29.98,West,267,9.0,16.0,87,0.00,,,0.03,Wunderground v.1.15,2013-01-14 17:04:00,
2013-01-14 12:05:00,41.9,38.3,29.98,West,267,7.0,16.0,87,0.00,,,0.03,Wunderground v.1.15,2013-01-14 17:05:00,
2013-01-14 12:06:00,41.8,38.2,29.98,WSW,258,9.0,16.0,87,0.00,,,0.03,Wunderground v.1.15,2013-01-14 17:06:00,
2013-01-14 12:08:00,41.8,38.2,29.99,West,265,9.0,16.0,87,0.00,,,0.03,Wunderground v.1.15,2013-01-14 17:08:00,
2013-01-14 12:10:00,41.6,38.0,29.98,West,270,8.0,16.0,87,0.00,,,0.03,Wunderground v.1.15,2013-01-14 17:10:00,
2013-01-14 12:11:00,41.5,37.9,29.98,West,265,6.0,9.0,87,0.00,,,0.03,Wunderground v.1.15,2013-01-14 17:11:00,
2013-01-14 12:13:00,41.5,37.9,29.98,West,263,11.0,12.0,87,0.00,,,0.03,Wunderground v.1.15,2013-01-14 17:13:00,
2013-01-14 12:15:00,41.6,38.0,29.98,West,266,10.0,13.0,87,0.00,,,0.03,Wunderground v.1.15,2013-01-14 17:15:00,
2013-01-14 12:16:00,41.8,38.2,29.98,WNW,286,8.0,14.0,87,0.00,,,0.03,Wunderground v.1.15,2013-01-14 17:16:00,
2013-01-14 12:18:00,41.6,37.7,29.98,WSW,247,8.0,16.0,86,0.00,,,0.03,Wunderground v.1.15,2013-01-14 17:18:00,
2013-01-14 12:20:00,41.6,37.7,29.98,West,281,6.0,8.0,86,0.00,,,0.03,Wunderground v.1.15,2013-01-14 17:20:00,
2013-01-14 12:21:00,41.5,37.6,29.98,NW,319,10.0,10.0,86,0.00,,,0.03,Wunderground v.1.15,2013-01-14 17:21:00,
2013-01-14 12:22:00,41.4,37.5,29.98,WSW,256,9.0,20.0,86,0.00,,,0.03,Wunderground v.1.15,2013-01-14 17:22:00,
2013-01-14 12:24:00,41.5,37.6,29.98,SSW,209,15.0,20.0,86,0.00,,,0.03,Wunderground v.1.15,2013-01-14 17:24:00,
2013-01-14 12:25:00,41.8,37.9,29.98,WSW,256,7.0,20.0,86,0.00,,,0.03,Wunderground v.1.15,2013-01-14 17:25:00,
2013-01-14 12:26:00,41.8,37.6,29.98,WSW,257,6.0,20.0,85,0.00,,,0.03,Wunderground v.1.15,2013-01-14 17:26:00,
2013-01-14 12:27:00,41.9,37.7,29.98,WSW,251,10.0,20.0,85,0.00,,,0.03,Wunderground v.1.15,2013-01-14 17:27:00,
2013-01-14 12:29:00,42.0,37.8,29.99,WSW,238,8.0,20.0,85,0.00,,,0.03,Wunderground v.1.15,2013-01-14 17:29:00,
2013-01-14 12:30:00,41.9,37.4,29.99,WSW,255,8.0,10.0,84,0.00,,,0.03,Wunderground v.1.15,2013-01-14 17:30:00,
2013-01-14 12:31:00,41.8,37.3,29.99,WNW,298,8.0,14.0,84,0.00,,,0.03,Wunderground v.1.15,2013-01-14 17:31:00,
2013-01-14 12:32:00,41.8,37.3,29.99,WSW,237,7.0,14.0,84,0.00,,,0.03,Wunderground v.1.15,2013-01-14 17:32:00,
2013-01-14 12:34:00,41.8,37.3,29.99,West,271,9.0,18.0,84,0.00,,,0.03,Wunderground v.1.15,2013-01-14 17:34:00,
2013-01-14 12:35:00,41.9,37.4,29.99,SW,224,8.0,18.0,84,0.00,,,0.03,Wunderground v.1.15,2013-01-14 17:35:00,
2013-01-14 12:37:00,41.8,37.0,29.99,WSW,254,7.0,18.0,83,0.00,,,0.03,Wunderground v.1.15,2013-01-14 17:37:00,
2013-01-14 12:39:00,41.6,37.1,29.99,SSE,159,12.0,18.0,84,0.00,,,0.03,Wunderground v.1.15,2013-01-14 17:39:00,
2013-01-14 12:40:00,41.8,37.3,29.99,West,259,10.0,10.0,84,0.00,,,0.03,Wunderground v.1.15,2013-01-14 17:40:00,
2013-01-14 12:42:00,41.9,37.4,30.00,WSW,252,8.0,10.0,84,0.00,,,0.03,Wunderground v.1.15,2013-01-14 17:42:00,
2013-01-14 12:44:00,42.1,37.3,30.00,SW,228,6.0,14.0,83,0.00,,,0.03,Wunderground v.1.15,2013-01-14 17:44:00,
2013-01-14 12:46:00,42.2,37.4,29.99,WSW,250,11.0,14.0,83,0.00,,,0.03,Wunderground v.1.15,2013-01-14 17:46:00,
2013-01-14 12:47:00,42.3,37.2,30.00,SW,236,8.0,17.0,82,0.00,,,0.03,Wunderground v.1.15,2013-01-14 17:47:00,
2013-01-14 12:50:00,42.2,37.1,30.00,West,273,9.0,9.0,82,0.00,,,0.03,Wunderground v.1.15,2013-01-14 17:50:00,
2013-01-14 12:51:00,42.2,37.1,30.00,NW,309,11.0,15.0,82,0.00,,,0.03,Wunderground v.1.15,2013-01-14 17:51:00,
2013-01-14 12:52:00,42.1,36.4,30.00,WNW,286,13.0,15.0,80,0.00,,,0.03,Wunderground v.1.15,2013-01-14 17:52:00,
2013-01-14 12:53:00,42.0,36.3,30.00,West,265,9.0,15.0,80,0.00,,,0.03,Wunderground v.1.15,2013-01-14 17:53:00,
2013-01-14 12:55:00,42.2,36.5,30.00,West,271,11.0,15.0,80,0.00,,,0.03,Wunderground v.1.15,2013-01-14 17:55:00,
2013-01-14 12:56:00,42.2,36.5,30.00,SW,221,11.0,20.0,80,0.00,,,0.03,Wunderground v.1.15,2013-01-14 17:56:00,
2013-01-14 12:57:00,42.1,36.1,30.00,West,279,6.0,20.0,79,0.00,,,0.03,Wunderground v.1.15,2013-01-14 17:57:00,
2013-01-14 12:58:00,42.0,36.0,30.00,West,265,8.0,20.0,79,0.00,,,0.03,Wunderground v.1.15,2013-01-14 17:58:00,
2013-01-14 13:01:00,41.6,36.2,30.00,West,263,6.0,10.0,81,0.00,,,0.03,Wunderground v.1.15,2013-01-14 18:01:00,
2013-01-14 13:02:00,41.6,36.2,30.00,NNW,327,10.0,12.0,81,0.00,,,0.03,Wunderground v.1.15,2013-01-14 18:02:00,
2013-01-14 13:03:00,41.7,36.3,29.99,WSW,243,8.0,12.0,81,0.00,,,0.03,Wunderground v.1.15,2013-01-14 18:03:00,
2013-01-14 13:06:00,42.0,35.6,29.99,West,278,11.0,21.0,78,0.00,,,0.03,Wunderground v.1.15,2013-01-14 18:06:00,
2013-01-14 13:07:00,42.0,35.3,29.99,NNW,327,10.0,21.0,77,0.00,,,0.03,Wunderground v.1.15,2013-01-14 18:07:00,
2013-01-14 13:08:00,42.0,35.6,29.99,SSW,207,11.0,21.0,78,0.00,,,0.03,Wunderground v.1.15,2013-01-14 18:08:00,
2013-01-14 13:11:00,42.2,35.8,29.99,WNW,288,7.0,9.0,78,0.00,,,0.03,Wunderground v.1.15,2013-01-14 18:11:00,
2013-01-14 13:12:00,42.5,36.1,30.00,West,271,5.0,9.0,78,0.00,,,0.03,Wunderground v.1.15,2013-01-14 18:12:00,
2013-01-14 13:13:00,42.5,36.1,30.00,West,260,8.0,12.0,78,0.00,,,0.03,Wunderground v.1.15,2013-01-14 18:13:00,
2013-01-14 13:16:00,42.4,36.0,30.00,West,270,4.0,13.0,78,0.00,,,0.03,Wunderground v.1.15,2013-01-14 18:16:00,
2013-01-14 13:18:00,42.4,36.0,30.00,WSW,244,9.0,14.0,78,0.00,,,0.03,Wunderground v.1.15,2013-01-14 18:18:00,
2013-01-14 13:19:00,42.5,36.1,30.01,West,277,10.0,15.0,78,0.00,,,0.03,Wunderground v.1.15,2013-01-14 18:19:00,
2013-01-14 13:21:00,42.4,35.4,30.00,West,263,8.0,17.0,76,0.00,,,0.03,Wunderground v.1.15,2013-01-14 18:21:00,
2013-01-14 13:23:00,42.2,35.5,30.00,West,279,9.0,17.0,77,0.00,,,0.03,Wunderground v.1.15,2013-01-14 18:23:00,
2013-01-14 13:24:00,42.1,35.4,30.01,West,266,4.0,22.0,77,0.00,,,0.03,Wunderground v.1.15,2013-01-14 18:24:00,
2013-01-14 13:26:00,42.0,35.3,30.01,West,279,5.0,22.0,77,0.00,,,0.03,Wunderground v.1.15,2013-01-14 18:26:00,
2013-01-14 13:28:00,41.7,34.7,30.01,WNW,297,11.0,22.0,76,0.00,,,0.03,Wunderground v.1.15,2013-01-14 18:28:00,
2013-01-14 13:29:00,41.6,34.6,30.01,WSW,254,9.0,22.0,76,0.00,,,0.03,Wunderground v.1.15,2013-01-14 18:29:00,
2013-01-14 13:31:00,41.5,34.5,30.01,WSW,254,13.0,17.0,76,0.00,,,0.03,Wunderground v.1.15,2013-01-14 18:31:00,
2013-01-14 13:33:00,41.6,34.3,30.01,WSW,252,8.0,17.0,75,0.00,,,0.03,Wunderground v.1.15,2013-01-14 18:33:00,
2013-01-14 13:34:00,41.6,34.3,30.01,West,281,12.0,17.0,75,0.00,,,0.03,Wunderground v.1.15,2013-01-14 18:34:00,
2013-01-14 13:37:00,41.8,34.5,30.01,WNW,284,4.0,17.0,75,0.00,,,0.03,Wunderground v.1.15,2013-01-14 18:37:00,
2013-01-14 13:39:00,41.7,34.4,30.02,WSW,251,12.0,17.0,75,0.00,,,0.03,Wunderground v.1.15,2013-01-14 18:39:00,
2013-01-14 13:40:00,41.6,33.9,30.02,West,271,7.0,8.0,74,0.00,,,0.03,Wunderground v.1.15,2013-01-14 18:40:00,
2013-01-14 13:42:00,41.4,33.7,30.02,West,263,8.0,21.0,74,0.00,,,0.03,Wunderground v.1.15,2013-01-14 18:42:00,
2013-01-14 13:44:00,41.2,33.2,30.02,West,279,9.0,21.0,73,0.00,,,0.03,Wunderground v.1.15,2013-01-14 18:44:00,
2013-01-14 13:45:00,41.0,33.0,30.03,WSW,254,7.0,21.0,73,0.00,,,0.03,Wunderground v.1.15,2013-01-14 18:45:00,
2013-01-14 13:47:00,40.9,32.9,30.02,WSW,250,12.0,21.0,73,0.00,,,0.03,Wunderground v.1.15,2013-01-14 18:47:00,
2013-01-14 13:49:00,41.0,33.0,30.02,West,267,10.0,21.0,73,0.00,,,0.03,Wunderground v.1.15,2013-01-14 18:49:00,
2013-01-14 13:50:00,41.0,33.0,30.02,WSW,254,14.0,14.0,73,0.00,,,0.03,Wunderground v.1.15,2013-01-14 18:50:00,
2013-01-14 13:52:00,41.3,33.6,30.03,WSW,251,15.0,20.0,74,0.00,,,0.03,Wunderground v.1.15,2013-01-14 18:52:00,
2013-01-14 13:54:00,41.5,33.1,30.02,West,261,12.0,21.0,72,0.00,,,0.03,Wunderground v.1.15,2013-01-14 18:54:00,
2013-01-14 13:55:00,41.6,33.2,30.02,WSW,239,7.0,21.0,72,0.00,,,0.03,Wunderground v.1.15,2013-01-14 18:55:00,
2013-01-14 13:57:00,41.6,33.6,30.03,SW,234,8.0,21.0,73,0.00,,,0.03,Wunderground v.1.15,2013-01-14 18:57:00,
2013-01-14 13:59:00,41.9,33.5,30.02,West,263,7.0,21.0,72,0.00,,,0.03,Wunderground v.1.15,2013-01-14 18:59:00,
2013-01-14 14:00:00,42.1,33.7,30.03,WSW,252,6.0,12.0,72,0.00,,,0.03,Wunderground v.1.15,2013-01-14 19:00:00,
2013-01-14 14:01:00,42.1,33.7,30.03,West,261,3.0,12.0,72,0.00,,,0.03,Wunderground v.1.15,2013-01-14 19:01:00,
2013-01-14 14:02:00,42.2,33.5,30.03,West,271,7.0,16.0,71,0.00,,,0.03,Wunderground v.1.15,2013-01-14 19:02:00,
2013-01-14 14:04:00,42.3,33.9,30.03,West,273,3.0,16.0,72,0.00,,,0.03,Wunderground v.1.15,2013-01-14 19:04:00,
2013-01-14 14:06:00,42.3,34.3,30.03,West,264,2.0,16.0,73,0.00,,,0.03,Wunderground v.1.15,2013-01-14 19:06:00,
2013-01-14 14:07:00,42.4,34.0,30.03,WSW,242,6.0,16.0,72,0.00,,,0.03,Wunderground v.1.15,2013-01-14 19:07:00,
2013-01-14 14:09:00,42.4,34.0,30.04,West,268,7.0,16.0,72,0.00,,,0.03,Wunderground v.1.15,2013-01-14 19:09:00,
2013-01-14 14:11:00,42.3,33.6,30.04,SW,221,3.0,11.0,71,0.00,,,0.03,Wunderground v.1.15,2013-01-14 19:11:00,
2013-01-14 14:13:00,42.1,33.4,30.04,West,266,11.0,11.0,71,0.00,,,0.03,Wunderground v.1.15,2013-01-14 19:13:00,
2013-01-14 14:14:00,41.6,33.2,30.04,WSW,239,6.0,16.0,72,0.00,,,0.03,Wunderground v.1.15,2013-01-14 19:14:00,
2013-01-14 14:16:00,41.4,33.0,30.04,West,265,15.0,20.0,72,0.00,,,0.03,Wunderground v.1.15,2013-01-14 19:16:00,
2013-01-14 14:18:00,41.1,32.8,30.04,West,262,7.0,20.0,72,0.00,,,0.03,Wunderground v.1.15,2013-01-14 19:18:00,
2013-01-14 14:20:00,40.9,32.9,30.04,WSW,250,8.0,11.0,73,0.00,,,0.03,Wunderground v.1.15,2013-01-14 19:20:00,
2013-01-14 14:21:00,40.8,32.5,30.04,West,261,8.0,12.0,72,0.00,,,0.03,Wunderground v.1.15,2013-01-14 19:21:00,
2013-01-14 14:22:00,40.8,32.5,30.04,West,269,8.0,12.0,72,0.00,,,0.03,Wunderground v.1.15,2013-01-14 19:22:00,
2013-01-14 14:23:00,40.7,32.4,30.04,WSW,240,8.0,13.0,72,0.00,,,0.03,Wunderground v.1.15,2013-01-14 19:23:00,
2013-01-14 14:25:00,40.6,32.3,30.05,WSW,252,5.0,14.0,72,0.00,,,0.03,Wunderground v.1.15,2013-01-14 19:25:00,
2013-01-14 14:26:00,40.6,32.6,30.05,SW,227,6.0,14.0,73,0.00,,,0.03,Wunderground v.1.15,2013-01-14 19:26:00,
2013-01-14 14:27:00,40.6,32.6,30.05,SW,226,6.0,14.0,73,0.00,,,0.03,Wunderground v.1.15,2013-01-14 19:27:00,
2013-01-14 14:28:00,40.5,32.5,30.05,WSW,254,5.0,14.0,73,0.00,,,0.03,Wunderground v.1.15,2013-01-14 19:28:00,
2013-01-14 14:30:00,40.5,32.5,30.05,WSW,251,7.0,7.0,73,0.00,,,0.03,Wunderground v.1.15,2013-01-14 19:30:00,
2013-01-14 14:32:00,40.6,32.3,30.05,WSW,257,7.0,17.0,72,0.00,,,0.03,Wunderground v.1.15,2013-01-14 19:32:00,
2013-01-14 14:33:00,40.7,32.4,30.05,WSW,248,8.0,17.0,72,0.00,,,0.03,Wunderground v.1.15,2013-01-14 19:33:00,
2013-01-14 14:35:00,40.7,32.0,30.05,SW,232,5.0,17.0,71,0.00,,,0.03,Wunderground v.1.15,2013-01-14 19:35:00,
2013-01-14 14:37:00,40.7,32.4,30.05,West,263,5.0,17.0,72,0.00,,,0.03,Wunderground v.1.15,2013-01-14 19:37:00,
2013-01-14 14:38:00,40.7,32.7,30.05,WSW,256,7.0,17.0,73,0.00,,,0.03,Wunderground v.1.15,2013-01-14 19:38:00,
2013-01-14 14:41:00,40.7,32.7,30.05,West,281,4.0,8.0,73,0.00,,,0.03,Wunderground v.1.15,2013-01-14 19:41:00,
2013-01-14 14:42:00,40.6,33.0,30.05,WNW,292,8.0,10.0,74,0.00,,,0.03,Wunderground v.1.15,2013-01-14 19:42:00,
2013-01-14 14:43:00,40.6,33.0,30.05,WNW,284,4.0,10.0,74,0.00,,,0.03,Wunderground v.1.15,2013-01-14 19:43:00,
2013-01-14 14:46:00,40.8,32.5,30.05,WSW,257,9.0,10.0,72,0.00,,,0.03,Wunderground v.1.15,2013-01-14 19:46:00,
2013-01-14 14:47:00,40.8,31.8,30.05,West,259,7.0,12.0,70,0.00,,,0.03,Wunderground v.1.15,2013-01-14 19:47:00,
2013-01-14 14:48:00,40.9,32.2,30.05,SW,215,1.0,12.0,71,0.00,,,0.03,Wunderground v.1.15,2013-01-14 19:48:00,
2013-01-14 14:49:00,40.9,32.2,30.05,West,270,2.0,12.0,71,0.00,,,0.03,Wunderground v.1.15,2013-01-14 19:49:00,
2013-01-14 14:51:00,40.9,31.9,30.05,West,265,7.0,14.0,70,0.00,,,0.03,Wunderground v.1.15,2013-01-14 19:51:00,
2013-01-14 14:52:00,40.8,32.1,30.05,WNW,288,9.0,14.0,71,0.00,,,0.03,Wunderground v.1.15,2013-01-14 19:52:00,
2013-01-14 14:53:00,40.8,31.8,30.05,West,277,5.0,14.0,70,0.00,,,0.03,Wunderground v.1.15,2013-01-14 19:53:00,
2013-01-14 14:54:00,40.7,32.0,30.05,WSW,248,8.0,14.0,71,0.00,,,0.03,Wunderground v.1.15,2013-01-14 19:54:00,
2013-01-14 14:56:00,40.6,31.2,30.05,West,274,13.0,18.0,69,0.00,,,0.03,Wunderground v.1.15,2013-01-14 19:56:00,
2013-01-14 14:57:00,40.5,31.1,30.05,WSW,241,8.0,18.0,69,0.00,,,0.03,Wunderground v.1.15,2013-01-14 19:57:00,
2013-01-14 14:58:00,40.5,31.1,30.05,West,280,8.0,18.0,69,0.00,,,0.03,Wunderground v.1.15,2013-01-14 19:58:00,
2013-01-14 15:00:00,40.5,31.1,30.05,West,281,8.0,8.0,69,0.00,,,0.03,Wunderground v.1.15,2013-01-14 20:00:00,
2013-01-14 15:02:00,40.5,31.5,30.05,West,267,6.0,11.0,70,0.00,,,0.03,Wunderground v.1.15,2013-01-14 20:02:00,
2013-01-14 15:03:00,40.5,31.1,30.05,West,259,5.0,11.0,69,0.00,,,0.03,Wunderground v.1.15,2013-01-14 20:03:00,
2013-01-14 15:05:00,40.6,31.6,30.06,West,263,6.0,13.0,70,0.00,,,0.03,Wunderground v.1.15,2013-01-14 20:05:00,
2013-01-14 15:07:00,40.5,30.8,30.06,West,281,11.0,20.0,68,0.00,,,0.03,Wunderground v.1.15,2013-01-14 20:07:00,
2013-01-14 15:08:00,40.4,30.7,30.06,WSW,246,6.0,20.0,68,0.00,,,0.03,Wunderground v.1.15,2013-01-14 20:08:00,
2013-01-14 15:10:00,40.4,31.4,30.06,West,263,8.0,8.0,70,0.00,,,0.03,Wunderground v.1.15,2013-01-14 20:10:00,
2013-01-14 15:12:00,40.3,30.9,30.06,SW,219,12.0,14.0,69,0.00,,,0.03,Wunderground v.1.15,2013-01-14 20:12:00,
2013-01-14 15:13:00,40.2,30.8,30.06,West,261,6.0,14.0,69,0.00,,,0.03,Wunderground v.1.15,2013-01-14 20:13:00,
2013-01-14 15:14:00,40.2,30.5,30.07,West,259,6.0,14.0,68,0.00,,,0.03,Wunderground v.1.15,2013-01-14 20:14:00,
2013-01-14 15:16:00,40.2,30.8,30.07,West,266,4.0,14.0,69,0.00,,,0.03,Wunderground v.1.15,2013-01-14 20:16:00,
2013-01-14 15:17:00,40.1,30.7,30.07,WSW,254,5.0,14.0,69,0.00,,,0.03,Wunderground v.1.15,2013-01-14 20:17:00,
2013-01-14 15:19:00,40.0,30.6,30.07,West,273,4.0,16.0,69,0.00,,,0.03,Wunderground v.1.15,2013-01-14 20:19:00,
2013-01-14 15:21:00,39.9,30.5,30.07,SW,235,6.0,15.0,69,0.00,,,0.03,Wunderground v.1.15,2013-01-14 20:21:00,
2013-01-14 15:22:00,39.9,30.5,30.07,WSW,247,8.0,15.0,69,0.00,,,0.03,Wunderground v.1.15,2013-01-14 20:22:00,
2013-01-14 15:24:00,39.8,30.5,30.07,WNW,284,4.0,15.0,69,0.00,,,0.03,Wunderground v.1.15,2013-01-14 20:24:00,
2013-01-14 15:25:00,39.8,30.8,30.07,WSW,243,2.0,15.0,70,0.00,,,0.03,Wunderground v.1.15,2013-01-14 20:25:00,
2013-01-14 15:26:00,39.8,30.8,30.07,SW,228,5.0,15.0,70,0.00,,,0.03,Wunderground v.1.15,2013-01-14 20:26:00,
2013-01-14 15:27:00,39.9,30.5,30.07,WSW,257,7.0,15.0,69,0.00,,,0.03,Wunderground v.1.15,2013-01-14 20:27:00,
2013-01-14 15:29:00,39.9,30.5,30.08,WSW,251,0.0,19.0,69,0.00,,,0.03,Wunderground v.1.15,2013-01-14 20:29:00,
2013-01-14 15:30:00,40.0,30.6,30.07,West,280,8.0,8.0,69,0.00,,,0.03,Wunderground v.1.15,2013-01-14 20:30:00,
2013-01-14 15:32:00,40.0,30.6,30.07,West,276,6.0,13.0,69,0.00,,,0.03,Wunderground v.1.15,2013-01-14 20:32:00,
2013-01-14 15:34:00,40.0,30.6,30.07,WSW,240,5.0,13.0,69,0.00,,,0.03,Wunderground v.1.15,2013-01-14 20:34:00,
2013-01-14 15:36:00,40.0,30.6,30.07,WSW,246,8.0,13.0,69,0.00,,,0.03,Wunderground v.1.15,2013-01-14 20:36:00,
2013-01-14 15:37:00,40.1,30.7,30.07,West,267,10.0,13.0,69,0.00,,,0.03,Wunderground v.1.15,2013-01-14 20:37:00,
2013-01-14 15:39:00,40.0,30.6,30.07,SSW,209,3.0,13.0,69,0.00,,,0.03,Wunderground v.1.15,2013-01-14 20:39:00,
2013-01-14 15:41:00,40.0,30.3,30.07,WSW,248,6.0,8.0,68,0.00,,,0.03,Wunderground v.1.15,2013-01-14 20:41:00,
2013-01-14 15:42:00,40.0,30.3,30.07,West,268,4.0,9.0,68,0.00,,,0.03,Wunderground v.1.15,2013-01-14 20:42:00,
2013-01-14 15:43:00,40.0,30.3,30.07,WSW,256,7.0,12.0,68,0.00,,,0.03,Wunderground v.1.15,2013-01-14 20:43:00,
2013-01-14 15:44:00,39.9,30.2,30.07,West,270,7.0,16.0,68,0.00,,,0.03,Wunderground v.1.15,2013-01-14 20:44:00,
2013-01-14 15:46:00,39.8,29.7,30.07,SSW,207,5.0,16.0,67,0.00,,,0.03,Wunderground v.1.15,2013-01-14 20:46:00,
2013-01-14 15:47:00,39.8,29.7,30.07,WSW,257,6.0,16.0,67,0.00,,,0.03,Wunderground v.1.15,2013-01-14 20:47:00,
2013-01-14 15:48:00,39.8,29.7,30.07,SW,216,6.0,16.0,67,0.00,,,0.03,Wunderground v.1.15,2013-01-14 20:48:00,
2013-01-14 15:49:00,39.8,30.1,30.07,WNW,288,4.0,16.0,68,0.00,,,0.03,Wunderground v.1.15,2013-01-14 20:49:00,
2013-01-14 15:51:00,39.6,29.9,30.07,West,272,8.0,12.0,68,0.00,,,0.03,Wunderground v.1.15,2013-01-14 20:51:00,
2013-01-14 15:53:00,39.5,29.8,30.07,WSW,249,12.0,12.0,68,0.00,,,0.03,Wunderground v.1.15,2013-01-14 20:53:00,
2013-01-14 15:54:00,39.4,29.7,30.07,West,270,6.0,16.0,68,0.00,,,0.03,Wunderground v.1.15,2013-01-14 20:54:00,
2013-01-14 15:56:00,39.3,29.6,30.07,WNW,292,2.0,16.0,68,0.00,,,0.03,Wunderground v.1.15,2013-01-14 20:56:00,
2013-01-14 15:58:00,39.2,29.5,30.07,South,179,4.0,16.0,68,0.00,,,0.03,Wunderground v.1.15,2013-01-14 20:58:00,
2013-01-14 16:00:00,39.1,29.8,30.07,West,269,1.0,6.0,69,0.00,,,0.03,Wunderground v.1.15,2013-01-14 21:00:00,
2013-01-14 16:02:00,38.9,29.6,30.07,WSW,256,0.0,6.0,69,0.00,,,0.03,Wunderground v.1.15,2013-01-14 21:02:00,
2013-01-14 16:03:00,38.9,29.2,30.08,West,259,3.0,8.0,68,0.00,,,0.03,Wunderground v.1.15,2013-01-14 21:03:00,
2013-01-14 16:04:00,38.9,29.2,30.08,West,261,6.0,8.0,68,0.00,,,0.03,Wunderground v.1.15,2013-01-14 21:04:00,
2013-01-14 16:05:00,38.8,29.8,30.08,WSW,240,0.0,8.0,70,0.00,,,0.03,Wunderground v.1.15,2013-01-14 21:05:00,
2013-01-14 16:07:00,38.7,29.4,30.08,WSW,255,5.0,9.0,69,0.00,,,0.03,Wunderground v.1.15,2013-01-14 21:07:00,
2013-01-14 16:09:00,38.7,29.0,30.08,SW,222,4.0,12.0,68,0.00,,,0.03,Wunderground v.1.15,2013-01-14 21:09:00,
2013-01-14 16:10:00,38.7,29.4,30.08,WSW,240,7.0,11.0,69,0.00,,,0.03,Wunderground v.1.15,2013-01-14 21:10:00,
2013-01-14 16:12:00,38.5,29.6,30.08,West,261,1.0,11.0,70,0.00,,,0.03,Wunderground v.1.15,2013-01-14 21:12:00,
2013-01-14 16:14:00,38.4,29.1,30.08,SW,217,8.0,13.0,69,0.00,,,0.03,Wunderground v.1.15,2013-01-14 21:14:00,
2013-01-14 16:15:00,38.4,29.1,30.07,West,279,3.0,13.0,69,0.00,,,0.03,Wunderground v.1.15,2013-01-14 21:15:00,
2013-01-14 16:18:00,38.2,29.3,30.08,NW,315,1.0,13.0,70,0.00,,,0.03,Wunderground v.1.15,2013-01-14 21:18:00,
2013-01-14 16:19:00,38.1,29.2,30.08,WNW,282,3.0,13.0,70,0.00,,,0.03,Wunderground v.1.15,2013-01-14 21:19:00,
2013-01-14 16:20:00,38.1,29.2,30.08,WSW,245,12.0,12.0,70,0.00,,,0.03,Wunderground v.1.15,2013-01-14 21:20:00,
2013-01-14 16:21:00,38.0,29.1,30.08,WSW,238,0.0,12.0,70,0.00,,,0.03,Wunderground v.1.15,2013-01-14 21:21:00,
2013-01-14 16:23:00,37.9,29.0,30.08,WSW,246,7.0,12.0,70,0.00,,,0.03,Wunderground v.1.15,2013-01-14 21:23:00,
2013-01-14 16:25:00,37.8,29.2,30.09,WSW,245,1.0,12.0,71,0.00,,,0.03,Wunderground v.1.15,2013-01-14 21:25:00,
2013-01-14 16:26:00,37.7,29.1,30.09,SW,230,5.0,12.0,71,0.00,,,0.03,Wunderground v.1.15,2013-01-14 21:26:00,
2013-01-14 16:28:00,37.5,29.3,30.09,West,281,2.0,12.0,72,0.00,,,0.03,Wunderground v.1.15,2013-01-14 21:28:00,
2013-01-14 16:30:00,37.4,29.2,30.09,West,269,6.0,12.0,72,0.00,,,0.03,Wunderground v.1.15,2013-01-14 21:30:00,
2013-01-14 16:31:00,37.3,29.1,30.09,West,271,3.0,4.0,72,0.00,,,0.03,Wunderground v.1.15,2013-01-14 21:31:00,
2013-01-14 16:34:00,37.1,28.9,30.09,West,267,0.0,15.0,72,0.00,,,0.03,Wunderground v.1.15,2013-01-14 21:34:00,
2013-01-14 16:35:00,37.1,29.2,30.09,West,259,4.0,15.0,73,0.00,,,0.03,Wunderground v.1.15,2013-01-14 21:35:00,
2013-01-14 16:36:00,37.0,29.1,30.09,West,281,9.0,15.0,73,0.00,,,0.03,Wunderground v.1.15,2013-01-14 21:36:00,
2013-01-14 16:39:00,36.8,29.0,30.10,West,273,7.0,15.0,73,0.00,,,0.03,Wunderground v.1.15,2013-01-14 21:39:00,
2013-01-14 16:40:00,36.8,29.0,30.10,WSW,252,3.0,4.0,73,0.00,,,0.03,Wunderground v.1.15,2013-01-14 21:40:00,
2013-01-14 16:41:00,36.7,28.5,30.10,WSW,252,1.0,5.0,72,0.00,,,0.03,Wunderground v.1.15,2013-01-14 21:41:00,
2013-01-14 16:44:00,36.6,29.1,30.09,NW,317,10.0,10.0,74,0.00,,,0.03,Wunderground v.1.15,2013-01-14 21:44:00,
2013-01-14 16:45:00,36.5,28.7,30.09,West,281,2.0,10.0,73,0.00,,,0.03,Wunderground v.1.15,2013-01-14 21:45:00,
2013-01-14 16:46:00,36.5,28.7,30.09,West,269,1.0,10.0,73,0.00,,,0.03,Wunderground v.1.15,2013-01-14 21:46:00,
2013-01-14 16:47:00,36.5,28.7,30.09,West,270,1.0,10.0,73,0.00,,,0.03,Wunderground v.1.15,2013-01-14 21:47:00,
2013-01-14 16:49:00,36.4,28.6,30.09,WSW,258,5.0,10.0,73,0.00,,,0.03,Wunderground v.1.15,2013-01-14 21:49:00,
2013-01-14 16:50:00,36.3,28.5,30.09,SSE,163,1.0,6.0,73,0.00,,,0.03,Wunderground v.1.15,2013-01-14 21:50:00,
2013-01-14 16:51:00,36.2,28.4,30.09,West,274,8.0,10.0,73,0.00,,,0.03,Wunderground v.1.15,2013-01-14 21:51:00,
2013-01-14 16:52:00,36.2,28.4,30.09,West,278,10.0,10.0,73,0.00,,,0.03,Wunderground v.1.15,2013-01-14 21:52:00,
2013-01-14 16:54:00,36.2,28.0,30.09,NW,304,5.0,10.0,72,0.00,,,0.03,Wunderground v.1.15,2013-01-14 21:54:00,
2013-01-14 16:55:00,36.1,28.3,30.09,West,269,4.0,10.0,73,0.00,,,0.03,Wunderground v.1.15,2013-01-14 21:55:00,
2013-01-14 16:57:00,36.1,27.9,30.09,South,188,6.0,10.0,72,0.00,,,0.03,Wunderground v.1.15,2013-01-14 21:57:00,
2013-01-14 16:59:00,36.0,27.8,30.09,WNW,289,5.0,10.0,72,0.00,,,0.03,Wunderground v.1.15,2013-01-14 21:59:00,
2013-01-14 17:01:00,36.0,28.2,30.09,WNW,294,2.0,4.0,73,0.00,,,0.03,Wunderground v.1.15,2013-01-14 22:01:00,
2013-01-14 17:02:00,36.0,28.2,30.09,SW,228,4.0,4.0,73,0.00,,,0.03,Wunderground v.1.15,2013-01-14 22:02:00,
2013-01-14 17:04:00,35.9,28.1,30.09,West,275,1.0,8.0,73,0.00,,,0.03,Wunderground v.1.15,2013-01-14 22:04:00,
2013-01-14 17:06:00,35.8,28.3,30.10,WSW,244,3.0,8.0,74,0.00,,,0.03,Wunderground v.1.15,2013-01-14 22:06:00,
2013-01-14 17:07:00,35.7,28.2,30.10,WNW,290,0.0,8.0,74,0.00,,,0.03,Wunderground v.1.15,2013-01-14 22:07:00,
2013-01-14 17:09:00,35.7,27.9,30.10,West,277,0.0,8.0,73,0.00,,,0.03,Wunderground v.1.15,2013-01-14 22:09:00,
2013-01-14 17:12:00,35.7,28.2,30.10,West,267,5.0,5.0,74,0.00,,,0.03,Wunderground v.1.15,2013-01-14 22:12:00,
2013-01-14 17:15:00,35.7,27.9,30.11,SW,236,1.0,8.0,73,0.00,,,0.03,Wunderground v.1.15,2013-01-14 22:15:00,
2013-01-14 17:17:00,35.7,27.9,30.11,NW,310,0.0,8.0,73,0.00,,,0.03,Wunderground v.1.15,2013-01-14 22:17:00,
2013-01-14 17:18:00,35.7,28.2,30.10,WNW,301,2.0,8.0,74,0.00,,,0.03,Wunderground v.1.15,2013-01-14 22:18:00,
2013-01-14 17:20:00,35.6,27.8,30.10,West,266,4.0,5.0,73,0.00,,,0.03,Wunderground v.1.15,2013-01-14 22:20:00,
2013-01-14 17:22:00,35.6,27.8,30.10,SW,232,0.0,7.0,73,0.00,,,0.03,Wunderground v.1.15,2013-01-14 22:22:00,
2013-01-14 17:23:00,35.6,27.8,30.09,WSW,247,1.0,7.0,73,0.00,,,0.03,Wunderground v.1.15,2013-01-14 22:23:00,
2013-01-14 17:25:00,35.5,28.0,30.09,NNW,329,1.0,7.0,74,0.00,,,0.03,Wunderground v.1.15,2013-01-14 22:25:00,
2013-01-14 17:27:00,35.5,27.7,30.09,WSW,257,0.0,7.0,73,0.00,,,0.03,Wunderground v.1.15,2013-01-14 22:27:00,
2013-01-14 17:28:00,35.3,28.2,30.09,West,278,1.0,7.0,75,0.00,,,0.03,Wunderground v.1.15,2013-01-14 22:28:00,
2013-01-14 17:30:00,35.2,28.4,30.09,WNW,286,3.0,4.0,76,0.00,,,0.03,Wunderground v.1.15,2013-01-14 22:30:00,
2013-01-14 17:32:00,35.1,28.3,30.09,West,281,1.0,4.0,76,0.00,,,0.03,Wunderground v.1.15,2013-01-14 22:32:00,
2013-01-14 17:33:00,35.0,28.2,30.09,West,262,9.0,9.0,76,0.00,,,0.03,Wunderground v.1.15,2013-01-14 22:33:00,
2013-01-14 17:35:00,34.9,27.8,30.09,NW,306,5.0,9.0,75,0.00,,,0.03,Wunderground v.1.15,2013-01-14 22:35:00,
2013-01-14 17:38:00,34.7,27.9,30.09,West,272,2.0,9.0,76,0.00,,,0.03,Wunderground v.1.15,2013-01-14 22:38:00,
2013-01-14 17:39:00,34.6,27.5,30.09,NNE,13,4.0,9.0,75,0.00,,,0.03,Wunderground v.1.15,2013-01-14 22:39:00,
2013-01-14 17:40:00,34.4,27.0,30.09,West,272,2.0,4.0,74,0.00,,,0.03,Wunderground v.1.15,2013-01-14 22:40:00,
2013-01-14 17:43:00,34.2,26.4,30.09,West,263,7.0,10.0,73,0.00,,,0.03,Wunderground v.1.15,2013-01-14 22:43:00,
2013-01-14 17:44:00,34.2,26.4,30.09,West,263,5.0,10.0,73,0.00,,,0.03,Wunderground v.1.15,2013-01-14 22:44:00,
2013-01-14 17:45:00,34.1,26.3,30.09,NW,313,0.0,10.0,73,0.00,,,0.03,Wunderground v.1.15,2013-01-14 22:45:00,
2013-01-14 17:48:00,34.0,26.3,30.09,North,350,3.0,10.0,73,0.00,,,0.03,Wunderground v.1.15,2013-01-14 22:48:00,
2013-01-14 17:49:00,34.0,26.3,30.09,WNW,288,1.0,10.0,73,0.00,,,0.03,Wunderground v.1.15,2013-01-14 22:49:00,
2013-01-14 17:50:00,33.9,26.8,30.09,West,263,5.0,10.0,75,0.00,,,0.03,Wunderground v.1.15,2013-01-14 22:50:00,
2013-01-14 17:51:00,33.8,26.4,30.09,West,277,8.0,8.0,74,0.00,,,0.03,Wunderground v.1.15,2013-01-14 22:51:00,
2013-01-14 17:53:00,33.6,26.5,30.09,West,261,4.0,8.0,75,0.00,,,0.03,Wunderground v.1.15,2013-01-14 22:53:00,
2013-01-14 17:54:00,33.5,26.1,30.09,WNW,285,4.0,8.0,74,0.00,,,0.03,Wunderground v.1.15,2013-01-14 22:54:00,
2013-01-14 17:55:00,33.5,26.4,30.09,WNW,284,0.0,8.0,75,0.00,,,0.03,Wunderground v.1.15,2013-01-14 22:55:00,
2013-01-14 17:56:00,33.4,26.0,30.09,SW,235,8.0,13.0,74,0.00,,,0.03,Wunderground v.1.15,2013-01-14 22:56:00,
2013-01-14 17:58:00,33.3,25.6,30.10,West,261,5.0,13.0,73,0.00,,,0.03,Wunderground v.1.15,2013-01-14 22:58:00,
2013-01-14 17:59:00,33.3,25.6,30.10,WSW,252,5.0,13.0,73,0.00,,,0.03,Wunderground v.1.15,2013-01-14 22:59:00,
2013-01-14 18:00:00,33.3,25.6,30.10,West,263,9.0,9.0,73,0.00,,,0.03,Wunderground v.1.15,2013-01-14 23:00:00,
2013-01-14 18:01:00,33.2,25.5,30.10,WNW,286,10.0,10.0,73,0.00,,,0.03,Wunderground v.1.15,2013-01-14 23:01:00,
2013-01-14 18:03:00,33.1,25.4,30.11,WSW,238,8.0,11.0,73,0.00,,,0.03,Wunderground v.1.15,2013-01-14 23:03:00,
2013-01-14 18:05:00,33.1,25.4,30.11,West,268,1.0,11.0,73,0.00,,,0.03,Wunderground v.1.15,2013-01-14 23:05:00,
2013-01-14 18:06:00,33.0,25.6,30.11,WSW,246,3.0,11.0,74,0.00,,,0.03,Wunderground v.1.15,2013-01-14 23:06:00,
2013-01-14 18:08:00,33.0,25.3,30.11,WSW,255,4.0,11.0,73,0.00,,,0.03,Wunderground v.1.15,2013-01-14 23:08:00,
2013-01-14 18:10:00,32.9,25.2,30.11,NW,307,2.0,4.0,73,0.00,,,0.03,Wunderground v.1.15,2013-01-14 23:10:00,
2013-01-14 18:11:00,32.9,25.5,30.11,West,276,3.0,4.0,74,0.00,,,0.03,Wunderground v.1.15,2013-01-14 23:11:00,
2013-01-14 18:14:00,32.9,25.2,30.11,NW,322,0.0,9.0,73,0.00,,,0.03,Wunderground v.1.15,2013-01-14 23:14:00,
2013-01-14 18:15:00,32.8,25.4,30.11,WNW,286,4.0,9.0,74,0.00,,,0.03,Wunderground v.1.15,2013-01-14 23:15:00,
2013-01-14 18:16:00,32.7,25.0,30.11,NNW,330,0.0,9.0,73,0.00,,,0.03,Wunderground v.1.15,2013-01-14 23:16:00,
2013-01-14 18:19:00,32.6,25.2,30.12,West,272,7.0,11.0,74,0.00,,,0.03,Wunderground v.1.15,2013-01-14 23:19:00,
2013-01-14 18:20:00,32.6,24.9,30.11,WSW,239,10.0,10.0,73,0.00,,,0.03,Wunderground v.1.15,2013-01-14 23:20:00,
2013-01-14 18:21:00,32.6,24.9,30.12,NNW,344,5.0,16.0,73,0.00,,,0.03,Wunderground v.1.15,2013-01-14 23:21:00,
2013-01-14 18:22:00,32.6,24.9,30.12,NNW,346,4.0,16.0,73,0.00,,,0.03,Wunderground v.1.15,2013-01-14 23:22:00,
2013-01-14 18:25:00,32.6,25.2,30.13,WNW,292,5.0,16.0,74,0.00,,,0.03,Wunderground v.1.15,2013-01-14 23:25:00,
2013-01-14 18:26:00,32.5,24.8,30.13,WNW,286,6.0,16.0,73,0.00,,,0.03,Wunderground v.1.15,2013-01-14 23:26:00,
2013-01-14 18:27:00,32.5,25.1,30.12,West,274,8.0,16.0,74,0.00,,,0.03,Wunderground v.1.15,2013-01-14 23:27:00,
2013-01-14 18:30:00,32.3,24.9,30.12,West,277,6.0,16.0,74,0.00,,,0.03,Wunderground v.1.15,2013-01-14 23:30:00,
2013-01-14 18:31:00,32.3,24.9,30.12,SW,234,3.0,8.0,74,0.00,,,0.03,Wunderground v.1.15,2013-01-14 23:31:00,
2013-01-14 18:32:00,32.2,24.8,30.12,SW,222,4.0,8.0,74,0.00,,,0.03,Wunderground v.1.15,2013-01-14 23:32:00,
2013-01-14 18:35:00,32.1,25.4,30.13,West,275,5.0,10.0,76,0.00,,,0.03,Wunderground v.1.15,2013-01-14 23:35:00,
2013-01-14 18:36:00,32.0,25.0,30.13,WSW,254,2.0,10.0,75,0.00,,,0.03,Wunderground v.1.15,2013-01-14 23:36:00,
2013-01-14 18:37:00,32.0,25.0,30.13,West,262,6.0,10.0,75,0.00,,,0.03,Wunderground v.1.15,2013-01-14 23:37:00,
2013-01-14 18:40:00,31.9,24.9,30.14,WNW,285,2.0,4.0,75,0.00,,,0.03,Wunderground v.1.15,2013-01-14 23:40:00,
2013-01-14 18:41:00,31.9,25.2,30.14,WNW,285,3.0,4.0,76,0.00,,,0.03,Wunderground v.1.15,2013-01-14 23:41:00,
2013-01-14 18:42:00,31.8,25.4,30.14,West,267,5.0,9.0,77,0.00,,,0.03,Wunderground v.1.15,2013-01-14 23:42:00,
2013-01-14 18:45:00,31.6,25.5,30.14,WNW,285,7.0,9.0,78,0.00,,,0.03,Wunderground v.1.15,2013-01-14 23:45:00,
2013-01-14 18:46:00,31.6,25.2,30.14,WSW,257,4.0,10.0,77,0.00,,,0.03,Wunderground v.1.15,2013-01-14 23:46:00,
2013-01-14 18:47:00,31.6,25.2,30.15,West,261,3.0,10.0,77,0.00,,,0.03,Wunderground v.1.15,2013-01-14 23:47:00,
2013-01-14 18:48:00,31.6,25.2,30.14,West,261,2.0,10.0,77,0.00,,,0.03,Wunderground v.1.15,2013-01-14 23:48:00,
2013-01-14 18:51:00,31.5,25.4,30.14,West,268,3.0,5.0,78,0.00,,,0.03,Wunderground v.1.15,2013-01-14 23:51:00,
2013-01-14 18:52:00,31.4,25.3,30.15,West,272,6.0,7.0,78,0.00,,,0.03,Wunderground v.1.15,2013-01-14 23:52:00,
2013-01-14 18:53:00,31.4,25.3,30.15,WNW,284,5.0,7.0,78,0.00,,,0.03,Wunderground v.1.15,2013-01-14 23:53:00,
2013-01-14 18:56:00,31.3,25.5,30.15,WSW,242,4.0,10.0,79,0.00,,,0.03,Wunderground v.1.15,2013-01-14 23:56:00,
2013-01-14 18:57:00,31.2,25.4,30.16,South,186,7.0,10.0,79,0.00,,,0.03,Wunderground v.1.15,2013-01-14 23:57:00,
2013-01-14 18:58:00,31.2,25.1,30.16,WSW,254,3.0,10.0,78,0.00,,,0.03,Wunderground v.1.15,2013-01-14 23:58:00,
2013-01-14 19:01:00,31.1,25.3,30.15,SW,215,3.0,5.0,79,0.00,,,0.03,Wunderground v.1.15,2013-01-15 00:01:00,
2013-01-14 19:02:00,31.1,25.3,30.15,West,263,3.0,7.0,79,0.00,,,0.03,Wunderground v.1.15,2013-01-15 00:02:00,
2013-01-14 19:03:00,31.0,24.9,30.15,NW,308,1.0,7.0,78,0.00,,,0.03,Wunderground v.1.15,2013-01-15 00:03:00,
2013-01-14 19:06:00,31.0,24.9,30.16,West,267,1.0,7.0,78,0.00,,,0.03,Wunderground v.1.15,2013-01-15 00:06:00,
2013-01-14 19:07:00,31.0,24.9,30.16,West,267,0.0,7.0,78,0.00,,,0.03,Wunderground v.1.15,2013-01-15 00:07:00,
2013-01-14 19:08:00,30.9,24.8,30.16,West,277,3.0,7.0,78,0.00,,,0.03,Wunderground v.1.15,2013-01-15 00:08:00,
2013-01-14 19:12:00,30.9,25.2,30.17,WSW,254,3.0,5.0,79,0.00,,,0.03,Wunderground v.1.15,2013-01-15 00:12:00,
2013-01-14 19:13:00,30.8,24.7,30.17,WSW,254,3.0,5.0,78,0.00,,,0.03,Wunderground v.1.15,2013-01-15 00:13:00,
2013-01-14 19:14:00,30.8,25.1,30.17,WSW,254,1.0,5.0,79,0.00,,,0.03,Wunderground v.1.15,2013-01-15 00:14:00,
2013-01-14 19:17:00,30.8,25.1,30.16,West,271,3.0,7.0,79,0.00,,,0.03,Wunderground v.1.15,2013-01-15 00:17:00,
2013-01-14 19:18:00,30.7,25.0,30.16,West,266,1.0,7.0,79,0.00,,,0.03,Wunderground v.1.15,2013-01-15 00:18:00,
2013-01-14 19:19:00,30.7,25.0,30.16,West,264,3.0,7.0,79,0.00,,,0.03,Wunderground v.1.15,2013-01-15 00:19:00,
2013-01-14 19:20:00,30.7,25.0,30.16,West,264,2.0,3.0,79,0.00,,,0.03,Wunderground v.1.15,2013-01-15 00:20:00,
2013-01-14 19:22:00,30.6,25.2,30.16,WSW,252,4.0,5.0,80,0.00,,,0.03,Wunderground v.1.15,2013-01-15 00:22:00,
2013-01-14 19:23:00,30.5,25.1,30.16,SW,230,2.0,5.0,80,0.00,,,0.03,Wunderground v.1.15,2013-01-15 00:23:00,
2013-01-14 19:24:00,30.5,24.8,30.15,West,275,11.0,11.0,79,0.00,,,0.03,Wunderground v.1.15,2013-01-15 00:24:00,
2013-01-14 19:25:00,30.6,24.6,30.15,WNW,292,3.0,11.0,78,0.00,,,0.03,Wunderground v.1.15,2013-01-15 00:25:00,
2013-01-14 19:27:00,30.6,24.6,30.15,West,261,1.0,11.0,78,0.00,,,0.03,Wunderground v.1.15,2013-01-15 00:27:00,
2013-01-14 19:28:00,30.6,24.9,30.15,WNW,292,3.0,11.0,79,0.00,,,0.03,Wunderground v.1.15,2013-01-15 00:28:00,
2013-01-14 19:29:00,30.6,24.9,30.14,WNW,292,1.0,11.0,79,0.00,,,0.03,Wunderground v.1.15,2013-01-15 00:29:00,
2013-01-14 19:30:00,30.6,24.9,30.14,WNW,292,2.0,3.0,79,0.00,,,0.03,Wunderground v.1.15,2013-01-15 00:30:00,
2013-01-14 19:32:00,30.4,24.7,30.14,WSW,247,5.0,9.0,79,0.00,,,0.03,Wunderground v.1.15,2013-01-15 00:32:00,
2013-01-14 19:33:00,30.3,24.6,30.14,West,267,4.0,9.0,79,0.00,,,0.03,Wunderground v.1.15,2013-01-15 00:33:00,
2013-01-14 19:35:00,30.3,24.6,30.14,SSW,212,0.0,9.0,79,0.00,,,0.03,Wunderground v.1.15,2013-01-15 00:35:00,
2013-01-14 19:36:00,30.3,24.6,30.15,West,261,3.0,9.0,79,0.00,,,0.03,Wunderground v.1.15,2013-01-15 00:36:00,
2013-01-14 19:37:00,30.2,24.5,30.15,West,273,1.0,9.0,79,0.00,,,0.03,Wunderground v.1.15,2013-01-15 00:37:00,
2013-01-14 19:39:00,30.2,24.5,30.16,WSW,239,3.0,9.0,79,0.00,,,0.03,Wunderground v.1.15,2013-01-15 00:39:00,
2013-01-14 19:40:00,30.1,24.4,30.16,West,265,0.0,9.0,79,0.00,,,0.03,Wunderground v.1.15,2013-01-15 00:40:00,
2013-01-14 19:41:00,30.1,24.7,30.16,WSW,257,2.0,5.0,80,0.00,,,0.03,Wunderground v.1.15,2013-01-15 00:41:00,
2013-01-14 19:43:00,30.1,24.4,30.17,WNW,298,5.0,7.0,79,0.00,,,0.03,Wunderground v.1.15,2013-01-15 00:43:00,
2013-01-14 19:44:00,30.0,24.3,30.17,West,260,2.0,7.0,79,0.00,,,0.03,Wunderground v.1.15,2013-01-15 00:44:00,
2013-01-14 19:45:00,30.0,24.3,30.17,WNW,285,4.0,7.0,79,0.00,,,0.03,Wunderground v.1.15,2013-01-15 00:45:00,
2013-01-14 19:46:00,30.0,24.3,30.17,West,259,2.0,7.0,79,0.00,,,0.03,Wunderground v.1.15,2013-01-15 00:46:00,
2013-01-14 19:48:00,29.9,24.8,30.17,West,262,3.0,7.0,81,0.00,,,0.03,Wunderground v.1.15,2013-01-15 00:48:00,
2013-01-14 19:49:00,29.8,24.7,30.17,West,268,5.0,7.0,81,0.00,,,0.03,Wunderground v.1.15,2013-01-15 00:49:00,
2013-01-14 19:50:00,29.7,24.3,30.17,West,277,4.0,4.0,80,0.00,,,0.03,Wunderground v.1.15,2013-01-15 00:50:00,
2013-01-14 19:51:00,29.7,24.3,30.17,West,267,5.0,7.0,80,0.00,,,0.03,Wunderground v.1.15,2013-01-15 00:51:00,
2013-01-14 19:53:00,29.7,24.6,30.17,WSW,238,3.0,7.0,81,0.00,,,0.03,Wunderground v.1.15,2013-01-15 00:53:00,
2013-01-14 19:54:00,29.7,24.6,30.17,West,267,5.0,7.0,81,0.00,,,0.03,Wunderground v.1.15,2013-01-15 00:54:00,
2013-01-14 19:55:00,29.7,24.3,30.17,WSW,257,1.0,9.0,80,0.00,,,0.03,Wunderground v.1.15,2013-01-15 00:55:00,
2013-01-14 19:56:00,29.7,24.3,30.16,WSW,248,0.0,9.0,80,0.00,,,0.03,Wunderground v.1.15,2013-01-15 00:56:00,
2013-01-14 19:58:00,29.8,24.1,30.16,West,264,4.0,9.0,79,0.00,,,0.03,Wunderground v.1.15,2013-01-15 00:58:00,
2013-01-14 20:00:00,29.8,24.1,30.17,West,271,3.0,3.0,79,0.00,,,0.03,Wunderground v.1.15,2013-01-15 01:00:00,
2013-01-14 20:01:00,29.9,24.2,30.17,West,263,4.0,5.0,79,0.00,,,0.03,Wunderground v.1.15,2013-01-15 01:01:00,
2013-01-14 20:03:00,29.9,24.2,30.17,WSW,245,5.0,7.0,79,0.00,,,0.03,Wunderground v.1.15,2013-01-15 01:03:00,
2013-01-14 20:05:00,29.9,24.2,30.18,West,264,6.0,8.0,79,0.00,,,0.03,Wunderground v.1.15,2013-01-15 01:05:00,
2013-01-14 20:06:00,29.9,24.2,30.17,North,360,8.0,8.0,79,0.00,,,0.03,Wunderground v.1.15,2013-01-15 01:06:00,
2013-01-14 20:08:00,29.9,23.9,30.17,West,275,7.0,16.0,78,0.00,,,0.03,Wunderground v.1.15,2013-01-15 01:08:00,
2013-01-14 20:10:00,29.9,24.2,30.17,West,272,1.0,10.0,79,0.00,,,0.03,Wunderground v.1.15,2013-01-15 01:10:00,
2013-01-14 20:11:00,29.9,24.2,30.17,WSW,253,0.0,10.0,79,0.00,,,0.03,Wunderground v.1.15,2013-01-15 01:11:00,
2013-01-14 20:12:00,29.9,24.2,30.17,WSW,256,5.0,15.0,79,0.00,,,0.03,Wunderground v.1.15,2013-01-15 01:12:00,
2013-01-14 20:14:00,29.9,24.2,30.17,West,280,6.0,15.0,79,0.00,,,0.03,Wunderground v.1.15,2013-01-15 01:14:00,
2013-01-14 20:16:00,29.8,24.1,30.18,SW,218,3.0,15.0,79,0.00,,,0.03,Wunderground v.1.15,2013-01-15 01:16:00,
2013-01-14 20:17:00,29.8,24.1,30.17,WNW,289,4.0,15.0,79,0.00,,,0.03,Wunderground v.1.15,2013-01-15 01:17:00,
2013-01-14 20:19:00,29.8,24.1,30.17,West,273,5.0,15.0,79,0.00,,,0.03,Wunderground v.1.15,2013-01-15 01:19:00,
2013-01-14 20:21:00,29.8,24.1,30.17,West,259,5.0,10.0,79,0.00,,,0.03,Wunderground v.1.15,2013-01-15 01:21:00,
2013-01-14 20:22:00,29.9,23.9,30.17,WSW,254,3.0,10.0,78,0.00,,,0.03,Wunderground v.1.15,2013-01-15 01:22:00,
2013-01-14 20:24:00,29.9,23.9,30.17,NW,311,2.0,10.0,78,0.00,,,0.03,Wunderground v.1.15,2013-01-15 01:24:00,
2013-01-14 20:26:00,29.9,23.9,30.17,WNW,285,3.0,10.0,78,0.00,,,0.03,Wunderground v.1.15,2013-01-15 01:26:00,
2013-01-14 20:27:00,29.9,23.9,30.17,WNW,288,0.0,10.0,78,0.00,,,0.03,Wunderground v.1.15,2013-01-15 01:27:00,
2013-01-14 20:29:00,29.8,24.4,30.17,WSW,246,1.0,10.0,80,0.00,,,0.03,Wunderground v.1.15,2013-01-15 01:29:00,
2013-01-14 20:31:00,29.7,24.0,30.17,SSW,211,2.0,9.0,79,0.00,,,0.03,Wunderground v.1.15,2013-01-15 01:31:00,
2013-01-14 20:32:00,29.7,24.0,30.17,WSW,248,2.0,9.0,79,0.00,,,0.03,Wunderground v.1.15,2013-01-15 01:32:00,
2013-01-14 20:35:00,29.8,24.1,30.17,WNW,284,4.0,9.0,79,0.00,,,0.03,Wunderground v.1.15,2013-01-15 01:35:00,
2013-01-14 20:37:00,29.8,24.1,30.17,SSW,202,0.0,9.0,79,0.00,,,0.03,Wunderground v.1.15,2013-01-15 01:37:00,
2013-01-14 20:38:00,29.8,23.8,30.17,WSW,254,0.0,9.0,78,0.00,,,0.03,Wunderground v.1.15,2013-01-15 01:38:00,
2013-01-14 20:40:00,29.7,24.0,30.17,West,279,3.0,3.0,79,0.00,,,0.03,Wunderground v.1.15,2013-01-15 01:40:00,
2013-01-14 20:43:00,29.7,24.0,30.17,WNW,289,2.0,5.0,79,0.00,,,0.03,Wunderground v.1.15,2013-01-15 01:43:00,
2013-01-14 20:45:00,29.6,23.9,30.17,NNW,340,2.0,6.0,79,0.00,,,0.03,Wunderground v.1.15,2013-01-15 01:45:00,
2013-01-14 20:48:00,29.6,24.2,30.17,WNW,282,1.0,7.0,80,0.00,,,0.03,Wunderground v.1.15,2013-01-15 01:48:00,
2013-01-14 20:50:00,29.5,23.8,30.17,SW,227,2.0,2.0,79,0.00,,,0.03,Wunderground v.1.15,2013-01-15 01:50:00,
2013-01-14 20:53:00,29.4,24.0,30.17,WSW,254,0.0,4.0,80,0.00,,,0.03,Wunderground v.1.15,2013-01-15 01:53:00,
2013-01-14 20:55:00,29.4,23.7,30.17,NW,306,0.0,4.0,79,0.00,,,0.03,Wunderground v.1.15,2013-01-15 01:55:00,
2013-01-14 20:58:00,29.4,23.7,30.17,WSW,247,4.0,5.0,79,0.00,,,0.03,Wunderground v.1.15,2013-01-15 01:58:00,
2013-01-14 20:59:00,29.4,23.7,30.17,WSW,253,6.0,6.0,79,0.00,,,0.03,Wunderground v.1.15,2013-01-15 01:59:00,
2013-01-14 21:00:00,29.4,24.0,30.17,WSW,245,2.0,3.0,80,0.00,,,0.03,Wunderground v.1.15,2013-01-15 02:00:00,
2013-01-14 21:03:00,29.4,24.0,30.18,WNW,296,0.0,3.0,80,0.00,,,0.03,Wunderground v.1.15,2013-01-15 02:03:00,
2013-01-14 21:04:00,29.4,24.0,30.18,WNW,297,1.0,3.0,80,0.00,,,0.03,Wunderground v.1.15,2013-01-15 02:04:00,
2013-01-14 21:05:00,29.4,24.0,30.18,West,277,1.0,4.0,80,0.00,,,0.03,Wunderground v.1.15,2013-01-15 02:05:00,
2013-01-14 21:08:00,29.4,24.0,30.17,West,268,7.0,8.0,80,0.00,,,0.03,Wunderground v.1.15,2013-01-15 02:08:00,
2013-01-14 21:09:00,29.4,24.0,30.17,NW,309,4.0,8.0,80,0.00,,,0.03,Wunderground v.1.15,2013-01-15 02:09:00,
2013-01-14 21:11:00,29.4,24.0,30.17,SW,236,3.0,5.0,80,0.00,,,0.03,Wunderground v.1.15,2013-01-15 02:11:00,
2013-01-14 21:13:00,29.3,23.9,30.17,WNW,282,0.0,5.0,80,0.00,,,0.03,Wunderground v.1.15,2013-01-15 02:13:00,
2013-01-14 21:14:00,29.3,23.9,30.17,WSW,258,3.0,5.0,80,0.00,,,0.03,Wunderground v.1.15,2013-01-15 02:14:00,
2013-01-14 21:15:00,29.3,23.9,30.17,WSW,246,4.0,5.0,80,0.00,,,0.03,Wunderground v.1.15,2013-01-15 02:15:00,
2013-01-14 21:16:00,29.3,23.9,30.17,West,259,0.0,5.0,80,0.00,,,0.03,Wunderground v.1.15,2013-01-15 02:16:00,
2013-01-14 21:19:00,29.2,24.1,30.17,SW,214,0.0,5.0,81,0.00,,,0.03,Wunderground v.1.15,2013-01-15 02:19:00,
2013-01-14 21:20:00,29.2,24.1,30.17,West,261,2.0,2.0,81,0.00,,,0.03,Wunderground v.1.15,2013-01-15 02:20:00,
2013-01-14 21:21:00,29.2,24.1,30.17,WSW,250,4.0,4.0,81,0.00,,,0.03,Wunderground v.1.15,2013-01-15 02:21:00,
2013-01-14 21:24:00,29.1,24.0,30.17,SSW,202,0.0,7.0,81,0.00,,,0.03,Wunderground v.1.15,2013-01-15 02:24:00,
2013-01-14 21:25:00,29.1,24.0,30.17,WNW,298,3.0,7.0,81,0.00,,,0.03,Wunderground v.1.15,2013-01-15 02:25:00,
2013-01-14 21:26:00,29.1,24.0,30.17,West,273,0.0,7.0,81,0.00,,,0.03,Wunderground v.1.15,2013-01-15 02:26:00,
2013-01-14 21:29:00,29.1,24.0,30.16,West,277,1.0,7.0,81,0.00,,,0.03,Wunderground v.1.15,2013-01-15 02:29:00,
2013-01-14 21:30:00,29.1,24.0,30.16,West,279,2.0,2.0,81,0.00,,,0.03,Wunderground v.1.15,2013-01-15 02:30:00,
2013-01-14 21:31:00,29.1,24.0,30.16,WNW,296,3.0,8.0,81,0.00,,,0.03,Wunderground v.1.15,2013-01-15 02:31:00,
2013-01-14 21:34:00,29.0,23.9,30.16,West,274,2.0,8.0,81,0.00,,,0.03,Wunderground v.1.15,2013-01-15 02:34:00,
2013-01-14 21:35:00,29.0,24.2,30.16,WNW,290,7.0,8.0,82,0.00,,,0.03,Wunderground v.1.15,2013-01-15 02:35:00,
2013-01-14 21:37:00,29.0,23.9,30.16,WNW,289,4.0,8.0,81,0.00,,,0.03,Wunderground v.1.15,2013-01-15 02:37:00,
2013-01-14 21:40:00,29.0,23.6,30.16,WSW,240,2.0,3.0,80,0.00,,,0.03,Wunderground v.1.15,2013-01-15 02:40:00,
2013-01-14 21:42:00,29.0,23.6,30.16,WSW,240,0.0,3.0,80,0.00,,,0.03,Wunderground v.1.15,2013-01-15 02:42:00,
2013-01-14 21:45:00,29.0,23.6,30.16,NW,321,0.0,3.0,80,0.00,,,0.03,Wunderground v.1.15,2013-01-15 02:45:00,
2013-01-14 21:47:00,29.0,23.6,30.16,WNW,284,3.0,4.0,80,0.00,,,0.03,Wunderground v.1.15,2013-01-15 02:47:00,
2013-01-14 21:50:00,29.0,23.3,30.16,WSW,250,3.0,3.0,79,0.00,,,0.03,Wunderground v.1.15,2013-01-15 02:50:00,
2013-01-14 21:51:00,29.0,23.3,30.16,WSW,250,1.0,4.0,79,0.00,,,0.03,Wunderground v.1.15,2013-01-15 02:51:00,
2013-01-14 21:53:00,29.0,23.6,30.17,WSW,250,0.0,4.0,80,0.00,,,0.03,Wunderground v.1.15,2013-01-15 02:53:00,
2013-01-14 21:55:00,29.0,23.6,30.17,West,280,1.0,4.0,80,0.00,,,0.03,Wunderground v.1.15,2013-01-15 02:55:00,
2013-01-14 21:56:00,29.0,23.6,30.17,West,279,1.0,4.0,80,0.00,,,0.03,Wunderground v.1.15,2013-01-15 02:56:00,
2013-01-14 21:58:00,29.0,23.6,30.18,NW,325,0.0,6.0,80,0.00,,,0.03,Wunderground v.1.15,2013-01-15 02:58:00,
2013-01-14 22:00:00,29.0,23.6,30.17,NW,305,0.0,1.0,80,0.00,,,0.03,Wunderground v.1.15,2013-01-15 03:00:00,
2013-01-14 22:01:00,29.0,23.6,30.17,NW,305,0.0,2.0,80,0.00,,,0.03,Wunderground v.1.15,2013-01-15 03:01:00,
2013-01-14 22:02:00,29.0,23.6,30.17,NW,305,0.0,2.0,80,0.00,,,0.03,Wunderground v.1.15,2013-01-15 03:02:00,
2013-01-14 22:04:00,29.0,23.3,30.17,NW,305,0.0,2.0,79,0.00,,,0.03,Wunderground v.1.15,2013-01-15 03:04:00,
2013-01-14 22:05:00,29.0,23.3,30.17,WSW,242,1.0,3.0,79,0.00,,,0.03,Wunderground v.1.15,2013-01-15 03:05:00,
2013-01-14 22:06:00,29.0,23.3,30.17,WSW,242,0.0,3.0,79,0.00,,,0.03,Wunderground v.1.15,2013-01-15 03:06:00,
2013-01-14 22:07:00,29.0,23.3,30.17,WSW,242,0.0,3.0,79,0.00,,,0.03,Wunderground v.1.15,2013-01-15 03:07:00,
2013-01-14 22:09:00,29.0,23.9,30.17,WSW,242,0.0,3.0,81,0.00,,,0.03,Wunderground v.1.15,2013-01-15 03:09:00,
2013-01-14 22:11:00,29.0,24.2,30.17,NW,315,5.0,5.0,82,0.00,,,0.03,Wunderground v.1.15,2013-01-15 03:11:00,
2013-01-14 22:12:00,28.9,23.5,30.17,NW,311,0.0,5.0,80,0.00,,,0.03,Wunderground v.1.15,2013-01-15 03:12:00,
2013-01-14 22:14:00,28.9,23.8,30.17,NW,311,1.0,5.0,81,0.00,,,0.03,Wunderground v.1.15,2013-01-15 03:14:00,
2013-01-14 22:16:00,28.8,24.0,30.17,WSW,257,2.0,5.0,82,0.00,,,0.03,Wunderground v.1.15,2013-01-15 03:16:00,
2013-01-14 22:17:00,28.9,23.8,30.17,West,273,5.0,5.0,81,0.00,,,0.03,Wunderground v.1.15,2013-01-15 03:17:00,
2013-01-14 22:18:00,28.9,23.5,30.17,WNW,301,3.0,7.0,80,0.00,,,0.03,Wunderground v.1.15,2013-01-15 03:18:00,
2013-01-14 22:19:00,28.9,23.5,30.17,West,276,0.0,7.0,80,0.00,,,0.03,Wunderground v.1.15,2013-01-15 03:19:00,
2013-01-14 22:22:00,28.8,23.7,30.17,West,277,4.0,10.0,81,0.00,,,0.03,Wunderground v.1.15,2013-01-15 03:22:00,
2013-01-14 22:23:00,28.8,23.1,30.17,West,261,0.0,10.0,79,0.00,,,0.03,Wunderground v.1.15,2013-01-15 03:23:00,
2013-01-14 22:24:00,28.9,23.5,30.17,West,261,0.0,10.0,80,0.00,,,0.03,Wunderground v.1.15,2013-01-15 03:24:00,
2013-01-14 22:27:00,28.8,23.4,30.17,WNW,287,0.0,10.0,80,0.00,,,0.03,Wunderground v.1.15,2013-01-15 03:27:00,
2013-01-14 22:28:00,28.8,23.4,30.17,WNW,287,0.0,10.0,80,0.00,,,0.03,Wunderground v.1.15,2013-01-15 03:28:00,
2013-01-14 22:29:00,28.8,23.4,30.17,WNW,299,4.0,10.0,80,0.00,,,0.03,Wunderground v.1.15,2013-01-15 03:29:00,
2013-01-14 22:32:00,28.8,23.1,30.17,West,271,0.0,5.0,79,0.00,,,0.03,Wunderground v.1.15,2013-01-15 03:32:00,
2013-01-14 22:33:00,28.8,23.4,30.17,West,271,0.0,5.0,80,0.00,,,0.03,Wunderground v.1.15,2013-01-15 03:33:00,
2013-01-14 22:34:00,28.8,23.4,30.17,West,267,5.0,7.0,80,0.00,,,0.03,Wunderground v.1.15,2013-01-15 03:34:00,
2013-01-14 22:37:00,28.8,23.1,30.17,West,267,0.0,7.0,79,0.00,,,0.03,Wunderground v.1.15,2013-01-15 03:37:00,
2013-01-14 22:38:00,28.8,23.4,30.17,West,267,0.0,7.0,80,0.00,,,0.03,Wunderground v.1.15,2013-01-15 03:38:00,
2013-01-14 22:40:00,28.8,22.8,30.17,North,355,3.0,4.0,78,0.00,,,0.03,Wunderground v.1.15,2013-01-15 03:40:00,
2013-01-14 22:43:00,28.8,22.8,30.17,West,280,3.0,5.0,78,0.00,,,0.03,Wunderground v.1.15,2013-01-15 03:43:00,
2013-01-14 22:45:00,28.8,22.8,30.17,NW,323,0.0,5.0,78,0.00,,,0.03,Wunderground v.1.15,2013-01-15 03:45:00,
2013-01-14 22:48:00,28.7,22.7,30.17,WNW,300,1.0,7.0,78,0.00,,,0.03,Wunderground v.1.15,2013-01-15 03:48:00,
2013-01-14 22:50:00,28.7,22.7,30.17,WSW,250,1.0,7.0,78,0.00,,,0.03,Wunderground v.1.15,2013-01-15 03:50:00,
2013-01-14 22:51:00,28.7,22.7,30.17,SSW,194,1.0,1.0,78,0.00,,,0.03,Wunderground v.1.15,2013-01-15 03:51:00,
2013-01-14 22:53:00,28.7,22.7,30.18,SW,230,0.0,5.0,78,0.00,,,0.03,Wunderground v.1.15,2013-01-15 03:53:00,
2013-01-14 22:56:00,28.7,22.7,30.18,West,273,0.0,5.0,78,0.00,,,0.03,Wunderground v.1.15,2013-01-15 03:56:00,
2013-01-14 22:58:00,28.7,23.0,30.18,West,273,3.0,5.0,79,0.00,,,0.03,Wunderground v.1.15,2013-01-15 03:58:00,
2013-01-14 23:01:00,28.7,23.3,30.18,WSW,256,1.0,4.0,80,0.00,,,0.03,Wunderground v.1.15,2013-01-15 04:01:00,
2013-01-14 23:03:00,28.6,23.2,30.18,WSW,243,1.0,4.0,80,0.00,,,0.03,Wunderground v.1.15,2013-01-15 04:03:00,
2013-01-14 23:04:00,28.6,23.2,30.18,NNW,342,0.0,4.0,80,0.00,,,0.03,Wunderground v.1.15,2013-01-15 04:04:00,
2013-01-14 23:06:00,28.6,23.2,30.17,West,281,0.0,4.0,80,0.00,,,0.00,Wunderground v.1.15,2013-01-15 04:06:00,
2013-01-14 23:09:00,28.5,23.1,30.18,WNW,296,2.0,5.0,80,0.00,,,0.00,Wunderground v.1.15,2013-01-15 04:09:00,
2013-01-14 23:11:00,28.5,22.8,30.18,West,261,0.0,2.0,79,0.00,,,0.00,Wunderground v.1.15,2013-01-15 04:11:00,
2013-01-14 23:14:00,28.5,22.8,30.19,West,261,0.0,2.0,79,0.00,,,0.00,Wunderground v.1.15,2013-01-15 04:14:00,
2013-01-14 23:16:00,28.5,22.8,30.19,West,273,2.0,4.0,79,0.00,,,0.00,Wunderground v.1.15,2013-01-15 04:16:00,
2013-01-14 23:19:00,28.5,22.8,30.21,SW,221,4.0,8.0,79,0.00,,,0.00,Wunderground v.1.15,2013-01-15 04:19:00,
2013-01-14 23:21:00,28.5,22.5,30.21,SW,230,4.0,6.0,78,0.00,,,0.00,Wunderground v.1.15,2013-01-15 04:21:00,
2013-01-14 23:22:00,28.5,22.8,30.21,West,275,2.0,6.0,79,0.00,,,0.00,Wunderground v.1.15,2013-01-15 04:22:00,
2013-01-14 23:25:00,28.5,22.8,30.21,West,272,5.0,7.0,79,0.00,,,0.00,Wunderground v.1.15,2013-01-15 04:25:00,
2013-01-14 23:26:00,28.5,22.5,30.20,West,269,4.0,10.0,78,0.00,,,0.00,Wunderground v.1.15,2013-01-15 04:26:00,
2013-01-14 23:27:00,28.5,22.2,30.21,West,260,1.0,10.0,77,0.00,,,0.00,Wunderground v.1.15,2013-01-15 04:27:00,
2013-01-14 23:30:00,28.5,22.8,30.22,WNW,283,4.0,10.0,79,0.00,,,0.00,Wunderground v.1.15,2013-01-15 04:30:00,
2013-01-14 23:31:00,28.5,22.5,30.21,NNE,20,2.0,4.0,78,0.00,,,0.00,Wunderground v.1.15,2013-01-15 04:31:00,
2013-01-14 23:32:00,28.5,22.8,30.21,West,269,1.0,7.0,79,0.00,,,0.00,Wunderground v.1.15,2013-01-15 04:32:00,
2013-01-14 23:35:00,28.4,22.4,30.21,WNW,294,7.0,8.0,78,0.00,,,0.00,Wunderground v.1.15,2013-01-15 04:35:00,
2013-01-14 23:36:00,28.4,22.4,30.20,WNW,294,3.0,11.0,78,0.00,,,0.00,Wunderground v.1.15,2013-01-15 04:36:00,
2013-01-14 23:37:00,28.4,22.1,30.20,WNW,282,5.0,11.0,77,0.00,,,0.00,Wunderground v.1.15,2013-01-15 04:37:00,
2013-01-14 23:40:00,28.4,22.4,30.21,West,279,2.0,3.0,78,0.00,,,0.00,Wunderground v.1.15,2013-01-15 04:40:00,
2013-01-14 23:42:00,28.4,22.4,30.21,West,279,3.0,6.0,78,0.00,,,0.00,Wunderground v.1.15,2013-01-15 04:42:00,
2013-01-14 23:45:00,28.3,22.3,30.20,West,261,1.0,6.0,78,0.00,,,0.00,Wunderground v.1.15,2013-01-15 04:45:00,
2013-01-14 23:46:00,28.4,22.4,30.20,West,275,6.0,7.0,78,0.00,,,0.00,Wunderground v.1.15,2013-01-15 04:46:00,
2013-01-14 23:47:00,28.3,22.3,30.20,SW,224,2.0,7.0,78,0.00,,,0.00,Wunderground v.1.15,2013-01-15 04:47:00,
2013-01-14 23:48:00,28.3,22.0,30.20,WSW,251,3.0,7.0,77,0.00,,,0.00,Wunderground v.1.15,2013-01-15 04:48:00,
2013-01-14 23:50:00,28.3,22.3,30.21,WSW,245,2.0,3.0,78,0.00,,,0.00,Wunderground v.1.15,2013-01-15 04:50:00,
2013-01-14 23:51:00,28.3,22.3,30.21,WSW,253,1.0,3.0,78,0.00,,,0.00,Wunderground v.1.15,2013-01-15 04:51:00,
2013-01-14 23:52:00,28.3,22.6,30.21,WSW,254,4.0,4.0,79,0.00,,,0.00,Wunderground v.1.15,2013-01-15 04:52:00,
2013-01-14 23:53:00,28.3,22.3,30.22,West,271,3.0,8.0,78,0.00,,,0.00,Wunderground v.1.15,2013-01-15 04:53:00,
2013-01-14 23:55:00,28.3,22.6,30.22,West,269,7.0,8.0,79,0.00,,,0.00,Wunderground v.1.15,2013-01-15 04:55:00,
2013-01-14 23:56:00,28.3,22.3,30.22,West,264,3.0,9.0,78,0.00,,,0.00,Wunderground v.1.15,2013-01-15 04:56:00,
2013-01-14 23:57:00,28.3,22.3,30.22,West,261,10.0,10.0,78,0.00,,,0.00,Wunderground v.1.15,2013-01-15 04:57:00,
2013-01-14 23:58:00,28.3,22.3,30.22,NW,311,0.0,10.0,78,0.00,,,0.00,Wunderground v.1.15,2013-01-15 04:58:00,